Time,TemperatureF,DewpointF,PressureIn,WindDirection,WindDirectionDegrees,WindSpeedMPH,WindSpeedGustMPH,Humidity,HourlyPrecipIn,Conditions,Clouds,dailyrainin,SoftwareType,DateUTC
2013-07-11 00:00:00,78.1,63.1,30.06,South,174,3.6,3.6,60,0.00,,---,0.00,VWS V14.01,2013-07-11 04:00:00,
2013-07-11 00:01:00,78.1,63.1,30.06,SSE,168,8.1,8.1,60,0.00,,---,0.00,VWS V14.01,2013-07-11 04:01:00,
2013-07-11 00:06:00,78.1,62.6,30.06,SSE,153,4.0,4.0,59,0.00,,---,0.00,VWS V14.01,2013-07-11 04:06:00,
2013-07-11 00:11:00,78.1,62.6,30.06,South,176,5.4,5.4,59,0.00,,---,0.00,VWS V14.01,2013-07-11 04:11:00,
2013-07-11 00:16:00,78.1,62.6,30.06,SSE,162,2.2,6.3,59,0.00,,---,0.00,VWS V14.01,2013-07-11 04:16:00,
2013-07-11 00:21:00,78.1,62.6,30.06,SSE,154,5.4,5.4,59,0.00,,---,0.00,VWS V14.01,2013-07-11 04:21:00,
2013-07-11 00:26:00,78.1,62.6,30.06,South,177,5.4,5.4,59,0.00,,---,0.00,VWS V14.01,2013-07-11 04:26:00,
2013-07-11 00:31:00,78.1,62.1,30.06,SSW,192,7.2,7.2,58,0.00,,---,0.00,VWS V14.01,2013-07-11 04:31:00,
2013-07-11 00:36:00,78.1,61.1,30.06,SSE,163,5.4,5.4,56,0.00,,---,0.00,VWS V14.01,2013-07-11 04:36:00,
2013-07-11 00:41:00,78.1,61.1,30.06,SSW,203,4.9,4.9,56,0.00,,---,0.00,VWS V14.01,2013-07-11 04:41:00,
2013-07-11 00:46:00,78.1,61.1,30.06,SSE,168,6.3,6.3,56,0.00,,---,0.00,VWS V14.01,2013-07-11 04:46:00,
2013-07-11 00:51:00,78.1,61.1,30.06,SSE,164,3.6,3.6,56,0.00,,---,0.00,VWS V14.01,2013-07-11 04:51:00,
2013-07-11 00:56:00,78.3,61.3,30.06,South,178,2.7,2.7,56,0.00,,---,0.00,VWS V14.01,2013-07-11 04:56:00,
2013-07-11 00:57:00,78.3,61.3,30.06,South,178,2.7,2.7,56,0.00,,---,0.00,VWS V14.01,2013-07-11 04:57:00,
2013-07-11 01:01:00,78.3,61.3,30.06,South,175,3.1,3.1,56,0.00,,---,0.00,VWS V14.01,2013-07-11 05:01:00,
2013-07-11 01:02:00,78.3,61.3,30.06,South,175,3.1,3.1,56,0.00,,---,0.00,VWS V14.01,2013-07-11 05:02:00,
2013-07-11 01:06:00,78.3,61.3,30.06,SSE,164,3.1,3.1,56,0.00,,---,0.00,VWS V14.01,2013-07-11 05:06:00,
2013-07-11 01:07:00,78.3,61.3,30.06,East,92,3.1,3.1,56,0.00,,---,0.00,VWS V14.01,2013-07-11 05:07:00,
2013-07-11 01:11:00,78.4,61.5,30.06,South,178,2.7,2.7,56,0.00,,---,0.00,VWS V14.01,2013-07-11 05:11:00,
2013-07-11 01:12:00,78.4,61.5,30.06,South,178,2.7,2.7,56,0.00,,---,0.00,VWS V14.01,2013-07-11 05:12:00,
2013-07-11 01:16:00,78.4,61.5,30.06,SSW,192,5.4,6.3,56,0.00,,---,0.00,VWS V14.01,2013-07-11 05:16:00,
2013-07-11 01:17:00,78.4,61.5,30.06,SSW,192,5.4,5.4,56,0.00,,---,0.00,VWS V14.01,2013-07-11 05:17:00,
2013-07-11 01:21:00,78.6,62.1,30.06,SSE,167,3.1,3.1,57,0.00,,---,0.00,VWS V14.01,2013-07-11 05:21:00,
2013-07-11 01:22:00,78.6,62.1,30.06,SSW,197,5.4,5.4,57,0.00,,---,0.00,VWS V14.01,2013-07-11 05:22:00,
2013-07-11 01:26:00,78.6,62.1,30.06,SSW,193,6.3,6.3,57,0.00,,---,0.00,VWS V14.01,2013-07-11 05:26:00,
2013-07-11 01:27:00,78.6,62.1,30.06,SSW,193,6.3,6.3,57,0.00,,---,0.00,VWS V14.01,2013-07-11 05:27:00,
2013-07-11 01:31:00,78.8,62.3,30.06,SSW,193,5.4,5.4,57,0.00,,---,0.00,VWS V14.01,2013-07-11 05:31:00,
2013-07-11 01:32:00,78.8,62.3,30.06,SSW,193,5.4,5.4,57,0.00,,---,0.00,VWS V14.01,2013-07-11 05:32:00,
2013-07-11 01:36:00,78.8,62.3,30.03,WNW,303,3.6,3.6,57,0.00,,---,0.00,VWS V14.01,2013-07-11 05:36:00,
2013-07-11 01:37:00,78.8,62.3,30.03,WNW,303,3.6,3.6,57,0.00,,---,0.00,VWS V14.01,2013-07-11 05:37:00,
2013-07-11 01:41:00,77.9,62.0,30.03,SSE,161,0.0,0.0,58,0.00,,---,0.00,VWS V14.01,2013-07-11 05:41:00,
2013-07-11 01:42:00,77.9,62.0,30.03,SW,230,0.0,0.0,58,0.00,,---,0.00,VWS V14.01,2013-07-11 05:42:00,
2013-07-11 01:46:00,77.0,62.1,30.03,SSW,203,2.7,2.7,60,0.00,,---,0.00,VWS V14.01,2013-07-11 05:46:00,
2013-07-11 01:47:00,77.0,62.1,30.03,SSW,203,2.7,2.7,60,0.00,,---,0.00,VWS V14.01,2013-07-11 05:47:00,
2013-07-11 01:51:00,77.0,62.1,30.03,WNW,302,2.2,2.2,60,0.00,,---,0.00,VWS V14.01,2013-07-11 05:51:00,
2013-07-11 01:52:00,77.0,62.1,30.03,WNW,302,2.2,2.2,60,0.00,,---,0.00,VWS V14.01,2013-07-11 05:52:00,
2013-07-11 01:56:00,76.1,62.6,30.03,West,261,3.1,3.1,63,0.00,,---,0.00,VWS V14.01,2013-07-11 05:56:00,
2013-07-11 01:57:00,76.1,62.6,30.03,West,261,3.1,3.1,63,0.00,,---,0.00,VWS V14.01,2013-07-11 05:57:00,
2013-07-11 02:01:00,75.7,63.2,30.03,WSW,237,2.7,2.7,65,0.00,,---,0.00,VWS V14.01,2013-07-11 06:01:00,
2013-07-11 02:02:00,75.7,63.2,30.03,West,265,2.2,2.7,65,0.00,,---,0.00,VWS V14.01,2013-07-11 06:02:00,
2013-07-11 02:06:00,75.6,63.0,30.03,West,265,2.2,2.2,65,0.00,,---,0.00,VWS V14.01,2013-07-11 06:06:00,
2013-07-11 02:07:00,75.6,63.0,30.03,West,265,2.2,2.2,65,0.00,,---,0.00,VWS V14.01,2013-07-11 06:07:00,
2013-07-11 02:12:00,75.2,63.9,30.03,WNW,288,0.0,0.0,68,0.00,,---,0.00,VWS V14.01,2013-07-11 06:12:00,
2013-07-11 02:17:00,75.2,63.9,30.03,WNW,288,0.0,0.0,68,0.00,,---,0.00,VWS V14.01,2013-07-11 06:17:00,
2013-07-11 02:18:00,75.2,63.9,30.03,WNW,288,0.0,0.0,68,0.00,,---,0.00,VWS V14.01,2013-07-11 06:18:00,
2013-07-11 02:22:00,74.8,64.4,30.03,WNW,288,0.0,0.0,70,0.00,,---,0.00,VWS V14.01,2013-07-11 06:22:00,
2013-07-11 02:23:00,74.8,64.4,30.03,WNW,288,0.0,0.0,70,0.00,,---,0.00,VWS V14.01,2013-07-11 06:23:00,
2013-07-11 02:27:00,74.8,64.4,30.03,WNW,288,0.0,0.0,70,0.00,,---,0.00,VWS V14.01,2013-07-11 06:27:00,
2013-07-11 02:28:00,74.8,64.4,30.03,WNW,288,0.0,0.0,70,0.00,,---,0.00,VWS V14.01,2013-07-11 06:28:00,
2013-07-11 02:32:00,74.8,65.2,30.03,WNW,288,0.0,0.0,72,0.00,,---,0.00,VWS V14.01,2013-07-11 06:32:00,
2013-07-11 02:33:00,74.8,65.2,30.03,WNW,288,0.0,0.0,72,0.00,,---,0.00,VWS V14.01,2013-07-11 06:33:00,
2013-07-11 02:37:00,75.0,67.3,30.03,SSW,206,2.2,2.2,77,0.00,,---,0.00,VWS V14.01,2013-07-11 06:37:00,
2013-07-11 02:38:00,75.0,67.3,30.03,SSW,206,2.2,2.2,77,0.00,,---,0.00,VWS V14.01,2013-07-11 06:38:00,
2013-07-11 02:42:00,75.0,67.3,30.03,SSW,206,2.2,2.2,77,0.04,,---,0.04,VWS V14.01,2013-07-11 06:42:00,
2013-07-11 02:43:00,75.0,67.3,30.03,SSW,206,2.2,2.2,77,0.04,,---,0.04,VWS V14.01,2013-07-11 06:43:00,
2013-07-11 02:47:00,74.8,67.5,30.03,SSE,159,4.9,4.9,78,0.04,,---,0.04,VWS V14.01,2013-07-11 06:47:00,
2013-07-11 02:48:00,74.8,67.5,30.03,SSE,159,4.9,4.9,78,0.04,,---,0.04,VWS V14.01,2013-07-11 06:48:00,
2013-07-11 02:52:00,74.8,67.5,30.00,SSE,152,7.6,7.6,78,0.04,,---,0.04,VWS V14.01,2013-07-11 06:52:00,
2013-07-11 02:53:00,74.8,67.5,30.00,SSE,152,7.6,7.6,78,0.04,,---,0.04,VWS V14.01,2013-07-11 06:53:00,
2013-07-11 02:57:00,74.8,67.9,30.00,SE,131,6.3,6.3,79,0.04,,---,0.04,VWS V14.01,2013-07-11 06:57:00,
2013-07-11 02:58:00,74.8,67.9,30.00,SE,131,6.3,6.3,79,0.04,,---,0.04,VWS V14.01,2013-07-11 06:58:00,
2013-07-11 02:59:00,74.8,67.9,30.00,SE,131,6.3,6.3,79,0.04,,---,0.04,VWS V14.01,2013-07-11 06:59:00,
2013-07-11 03:02:00,74.8,67.9,30.00,South,183,0.0,5.4,79,0.04,,---,0.04,VWS V14.01,2013-07-11 07:02:00,
2013-07-11 03:03:00,74.8,67.9,30.00,South,183,0.0,5.4,79,0.04,,---,0.04,VWS V14.01,2013-07-11 07:03:00,
2013-07-11 03:04:00,74.8,67.9,30.00,South,183,0.0,0.0,79,0.04,,---,0.04,VWS V14.01,2013-07-11 07:04:00,
2013-07-11 03:07:00,74.8,67.9,30.00,South,183,0.0,0.0,79,0.04,,---,0.04,VWS V14.01,2013-07-11 07:07:00,
2013-07-11 03:08:00,74.8,67.9,30.00,South,183,0.0,0.0,79,0.04,,---,0.04,VWS V14.01,2013-07-11 07:08:00,
2013-07-11 03:09:00,74.8,67.9,30.00,South,183,0.0,0.0,79,0.04,,---,0.04,VWS V14.01,2013-07-11 07:09:00,
2013-07-11 03:12:00,75.0,68.4,30.00,SSE,166,2.7,2.7,80,0.04,,---,0.04,VWS V14.01,2013-07-11 07:12:00,
2013-07-11 03:13:00,75.0,68.4,30.00,SSE,166,2.7,2.7,80,0.04,,---,0.04,VWS V14.01,2013-07-11 07:13:00,
2013-07-11 03:14:00,75.0,68.4,30.00,SSE,166,2.7,2.7,80,0.04,,---,0.04,VWS V14.01,2013-07-11 07:14:00,
2013-07-11 03:17:00,75.0,68.4,30.00,South,175,3.1,3.1,80,0.04,,---,0.04,VWS V14.01,2013-07-11 07:17:00,
2013-07-11 03:18:00,75.0,68.4,30.00,South,175,3.1,3.1,80,0.04,,---,0.04,VWS V14.01,2013-07-11 07:18:00,
2013-07-11 03:20:00,75.4,68.8,30.00,SSW,213,2.7,2.7,80,0.04,,---,0.04,VWS V14.01,2013-07-11 07:20:00,
2013-07-11 03:22:00,75.4,68.8,30.00,SSE,165,3.1,3.1,80,0.04,,---,0.04,VWS V14.01,2013-07-11 07:22:00,
2013-07-11 03:23:00,75.4,68.8,30.00,SSE,165,3.1,3.1,80,0.04,,---,0.04,VWS V14.01,2013-07-11 07:23:00,
2013-07-11 03:25:00,75.4,68.8,30.00,SSE,165,3.1,3.1,80,0.04,,---,0.04,VWS V14.01,2013-07-11 07:25:00,
2013-07-11 03:27:00,75.6,69.0,30.00,SSE,167,4.0,4.0,80,0.04,,---,0.04,VWS V14.01,2013-07-11 07:27:00,
2013-07-11 03:28:00,75.6,69.0,30.00,SSE,167,4.0,4.0,80,0.04,,---,0.04,VWS V14.01,2013-07-11 07:28:00,
2013-07-11 03:30:00,75.7,69.1,30.00,South,172,2.7,2.7,80,0.04,,---,0.04,VWS V14.01,2013-07-11 07:30:00,
2013-07-11 03:32:00,75.7,69.5,30.00,SSE,147,5.8,5.8,81,0.04,,---,0.04,VWS V14.01,2013-07-11 07:32:00,
2013-07-11 03:33:00,75.7,69.5,30.00,SSE,147,5.8,5.8,81,0.04,,---,0.04,VWS V14.01,2013-07-11 07:33:00,
2013-07-11 03:35:00,75.7,69.5,30.00,SSE,147,5.8,5.8,81,0.04,,---,0.04,VWS V14.01,2013-07-11 07:35:00,
2013-07-11 03:38:00,75.9,70.0,30.00,SSE,147,5.8,5.8,82,0.04,,---,0.04,VWS V14.01,2013-07-11 07:38:00,
2013-07-11 03:40:00,76.1,70.6,30.00,SSE,147,5.8,5.8,83,0.04,,---,0.04,VWS V14.01,2013-07-11 07:40:00,
2013-07-11 03:43:00,76.1,70.6,30.00,SSE,153,5.8,5.8,83,0.00,,---,0.04,VWS V14.01,2013-07-11 07:43:00,
2013-07-11 03:44:00,75.7,69.5,30.00,SSE,153,5.8,5.8,81,0.00,,---,0.04,VWS V14.01,2013-07-11 07:44:00,
2013-07-11 03:45:00,75.7,69.5,30.00,SSE,153,5.8,5.8,81,0.00,,---,0.04,VWS V14.01,2013-07-11 07:45:00,
2013-07-11 03:48:00,75.7,69.5,30.00,SSE,167,5.8,5.8,81,0.00,,---,0.04,VWS V14.01,2013-07-11 07:48:00,
2013-07-11 03:49:00,75.6,69.3,30.00,SSE,167,5.8,5.8,81,0.00,,---,0.04,VWS V14.01,2013-07-11 07:49:00,
2013-07-11 03:50:00,75.6,69.3,30.00,SSE,167,5.8,5.8,81,0.00,,---,0.04,VWS V14.01,2013-07-11 07:50:00,
2013-07-11 03:53:00,75.6,69.3,30.00,SW,216,3.6,3.6,81,0.00,,---,0.04,VWS V14.01,2013-07-11 07:53:00,
2013-07-11 03:54:00,75.4,69.5,30.00,SW,216,3.6,3.6,82,0.00,,---,0.04,VWS V14.01,2013-07-11 07:54:00,
2013-07-11 03:55:00,75.4,69.9,30.00,SW,216,3.6,3.6,83,0.00,,---,0.04,VWS V14.01,2013-07-11 07:55:00,
2013-07-11 03:58:00,75.4,69.9,30.00,SSE,160,3.1,3.1,83,0.00,,---,0.04,VWS V14.01,2013-07-11 07:58:00,
2013-07-11 03:59:00,75.4,69.9,30.00,SSE,160,3.1,3.1,83,0.00,,---,0.04,VWS V14.01,2013-07-11 07:59:00,
2013-07-11 04:00:00,75.6,70.4,30.00,SSE,160,3.1,3.1,84,0.00,,---,0.04,VWS V14.01,2013-07-11 08:00:00,
2013-07-11 04:03:00,75.6,70.4,30.00,South,179,2.2,3.1,84,0.00,,---,0.04,VWS V14.01,2013-07-11 08:03:00,
2013-07-11 04:04:00,75.6,70.4,30.00,South,179,2.2,2.2,84,0.00,,---,0.04,VWS V14.01,2013-07-11 08:04:00,
2013-07-11 04:05:00,75.6,70.4,30.00,SSE,166,3.6,3.6,84,0.00,,---,0.04,VWS V14.01,2013-07-11 08:05:00,
2013-07-11 04:08:00,75.6,70.4,30.00,SSW,195,0.0,0.0,84,0.00,,---,0.04,VWS V14.01,2013-07-11 08:08:00,
2013-07-11 04:09:00,75.6,70.4,30.00,SW,221,3.6,3.6,84,0.00,,---,0.04,VWS V14.01,2013-07-11 08:09:00,
2013-07-11 04:10:00,75.7,70.6,30.00,SW,221,3.6,3.6,84,0.00,,---,0.04,VWS V14.01,2013-07-11 08:10:00,
2013-07-11 04:13:00,75.7,70.6,30.00,SW,221,3.6,3.6,84,0.00,,---,0.04,VWS V14.01,2013-07-11 08:13:00,
2013-07-11 04:14:00,75.7,70.6,30.00,SW,221,3.6,3.6,84,0.00,,---,0.04,VWS V14.01,2013-07-11 08:14:00,
2013-07-11 04:15:00,75.7,70.6,30.00,South,182,0.0,0.0,84,0.00,,---,0.04,VWS V14.01,2013-07-11 08:15:00,
2013-07-11 04:18:00,75.7,70.6,30.00,SE,143,5.8,5.8,84,0.00,,---,0.04,VWS V14.01,2013-07-11 08:18:00,
2013-07-11 04:19:00,75.7,70.6,30.00,SE,143,5.8,5.8,84,0.00,,---,0.04,VWS V14.01,2013-07-11 08:19:00,
2013-07-11 04:20:00,75.7,70.6,30.00,SE,143,5.8,5.8,84,0.00,,---,0.04,VWS V14.01,2013-07-11 08:20:00,
2013-07-11 04:23:00,75.7,70.6,30.00,South,187,3.1,3.1,84,0.00,,---,0.04,VWS V14.01,2013-07-11 08:23:00,
2013-07-11 04:24:00,75.7,70.6,30.00,South,187,3.1,3.1,84,0.00,,---,0.00,VWS V14.01,2013-07-11 08:24:00,
2013-07-11 04:25:00,75.7,70.6,30.00,SSW,199,0.0,0.0,84,0.00,,---,0.04,VWS V14.01,2013-07-11 08:25:00,
2013-07-11 04:28:00,75.7,70.6,30.00,SSW,199,0.0,0.0,84,0.00,,---,0.04,VWS V14.01,2013-07-11 08:28:00,
2013-07-11 04:29:00,75.7,70.6,30.00,SSW,199,0.0,0.0,84,0.00,,---,0.04,VWS V14.01,2013-07-11 08:29:00,
2013-07-11 04:30:00,75.7,70.6,30.00,SSW,199,0.0,0.0,84,0.00,,---,0.04,VWS V14.01,2013-07-11 08:30:00,
2013-07-11 04:33:00,75.7,70.6,30.00,SW,233,0.0,2.7,84,0.00,,---,0.04,VWS V14.01,2013-07-11 08:33:00,
2013-07-11 04:34:00,75.7,70.6,30.00,NW,325,0.0,0.0,84,0.00,,---,0.04,VWS V14.01,2013-07-11 08:34:00,
2013-07-11 04:35:00,75.7,70.6,30.00,NW,325,0.0,0.0,84,0.00,,---,0.04,VWS V14.01,2013-07-11 08:35:00,
2013-07-11 04:38:00,75.9,70.7,30.00,ESE,108,0.0,0.0,84,0.00,,---,0.04,VWS V14.01,2013-07-11 08:38:00,
2013-07-11 04:39:00,75.9,70.7,30.00,ESE,108,0.0,0.0,84,0.00,,---,0.04,VWS V14.01,2013-07-11 08:39:00,
2013-07-11 04:40:00,75.9,70.7,30.00,ESE,108,0.0,0.0,84,0.00,,---,0.04,VWS V14.01,2013-07-11 08:40:00,
2013-07-11 04:43:00,75.9,70.7,30.00,WSW,245,3.6,3.6,84,0.00,,---,0.04,VWS V14.01,2013-07-11 08:43:00,
2013-07-11 04:44:00,75.9,70.7,30.00,WSW,245,3.6,3.6,84,0.00,,---,0.04,VWS V14.01,2013-07-11 08:44:00,
2013-07-11 04:46:00,75.9,71.1,30.00,WSW,245,3.6,3.6,85,0.00,,---,0.04,VWS V14.01,2013-07-11 08:46:00,
2013-07-11 04:48:00,76.1,71.3,30.00,WSW,245,3.6,3.6,85,0.00,,---,0.04,VWS V14.01,2013-07-11 08:48:00,
2013-07-11 04:49:00,76.1,71.3,30.00,South,172,5.8,5.8,85,0.00,,---,0.04,VWS V14.01,2013-07-11 08:49:00,
2013-07-11 04:51:00,76.1,71.3,30.00,South,172,5.8,5.8,85,0.00,,---,0.04,VWS V14.01,2013-07-11 08:51:00,
2013-07-11 04:53:00,76.1,71.3,30.00,SE,132,0.0,0.0,85,0.00,,---,0.04,VWS V14.01,2013-07-11 08:53:00,
2013-07-11 04:54:00,76.1,71.3,30.00,SE,132,0.0,0.0,85,0.00,,---,0.04,VWS V14.01,2013-07-11 08:54:00,
2013-07-11 04:56:00,76.1,71.3,30.00,SE,132,0.0,0.0,85,0.00,,---,0.04,VWS V14.01,2013-07-11 08:56:00,
2013-07-11 04:58:00,76.1,71.3,30.00,SSW,207,4.0,4.0,85,0.00,,---,0.04,VWS V14.01,2013-07-11 08:58:00,
2013-07-11 04:59:00,76.1,71.3,30.00,SSW,207,4.0,4.0,85,0.00,,---,0.04,VWS V14.01,2013-07-11 08:59:00,
2013-07-11 05:01:00,76.1,71.3,30.00,West,269,0.0,4.0,85,0.00,,---,0.04,VWS V14.01,2013-07-11 09:01:00,
2013-07-11 05:03:00,76.1,71.3,30.00,West,269,0.0,0.0,85,0.00,,---,0.04,VWS V14.01,2013-07-11 09:03:00,
2013-07-11 05:04:00,76.1,71.3,30.00,West,269,0.0,0.0,85,0.00,,---,0.04,VWS V14.01,2013-07-11 09:04:00,
2013-07-11 05:05:00,76.1,71.3,30.00,West,269,0.0,0.0,85,0.00,,---,0.04,VWS V14.01,2013-07-11 09:05:00,
2013-07-11 05:06:00,76.1,71.3,30.00,West,269,0.0,0.0,85,0.00,,---,0.04,VWS V14.01,2013-07-11 09:06:00,
2013-07-11 05:08:00,76.1,71.3,30.00,SE,141,0.0,0.0,85,0.00,,---,0.04,VWS V14.01,2013-07-11 09:08:00,
2013-07-11 05:09:00,76.1,71.3,30.00,WNW,289,0.0,0.0,85,0.00,,---,0.04,VWS V14.01,2013-07-11 09:09:00,
2013-07-11 05:10:00,76.1,71.3,30.00,ESE,121,2.7,2.7,85,0.00,,---,0.04,VWS V14.01,2013-07-11 09:10:00,
2013-07-11 05:11:00,76.1,71.3,30.00,ESE,121,2.7,2.7,85,0.00,,---,0.04,VWS V14.01,2013-07-11 09:11:00,
2013-07-11 05:13:00,76.1,71.3,30.00,ESE,121,2.7,2.7,85,0.00,,---,0.04,VWS V14.01,2013-07-11 09:13:00,
2013-07-11 05:14:00,76.1,71.3,30.00,ESE,121,2.7,2.7,85,0.00,,---,0.04,VWS V14.01,2013-07-11 09:14:00,
2013-07-11 05:15:00,76.1,71.3,30.00,ESE,121,2.7,2.7,85,0.00,,---,0.04,VWS V14.01,2013-07-11 09:15:00,
2013-07-11 05:16:00,76.1,71.3,30.00,West,279,0.0,0.0,85,0.00,,---,0.04,VWS V14.01,2013-07-11 09:16:00,
2013-07-11 05:19:00,76.1,71.3,30.00,WNW,302,0.0,0.0,85,0.00,,---,0.04,VWS V14.01,2013-07-11 09:19:00,
2013-07-11 05:20:00,76.3,71.4,30.00,WNW,302,0.0,0.0,85,0.00,,---,0.04,VWS V14.01,2013-07-11 09:20:00,
2013-07-11 05:21:00,76.3,71.4,30.00,WNW,302,0.0,0.0,85,0.00,,---,0.04,VWS V14.01,2013-07-11 09:21:00,
2013-07-11 05:24:00,76.3,71.4,30.00,WNW,302,0.0,0.0,85,0.00,,---,0.04,VWS V14.01,2013-07-11 09:24:00,
2013-07-11 05:25:00,76.3,71.4,30.00,West,262,0.0,0.0,85,0.00,,---,0.04,VWS V14.01,2013-07-11 09:25:00,
2013-07-11 05:26:00,76.3,71.4,30.00,West,260,3.1,3.1,85,0.00,,---,0.04,VWS V14.01,2013-07-11 09:26:00,
2013-07-11 05:29:00,76.1,71.3,30.00,SW,222,0.0,0.0,85,0.00,,---,0.04,VWS V14.01,2013-07-11 09:29:00,
2013-07-11 05:30:00,76.1,71.3,30.00,SW,222,0.0,0.0,85,0.00,,---,0.04,VWS V14.01,2013-07-11 09:30:00,
2013-07-11 05:31:00,76.1,71.3,30.00,SW,219,0.0,0.0,85,0.00,,---,0.04,VWS V14.01,2013-07-11 09:31:00,
2013-07-11 05:34:00,76.1,71.3,30.00,SW,219,0.0,0.0,85,0.00,,---,0.04,VWS V14.01,2013-07-11 09:34:00,
2013-07-11 05:35:00,76.1,71.3,30.00,NNW,335,5.4,5.4,85,0.00,,---,0.04,VWS V14.01,2013-07-11 09:35:00,
2013-07-11 05:36:00,76.1,71.3,30.00,NNW,335,5.4,5.4,85,0.00,,---,0.04,VWS V14.01,2013-07-11 09:36:00,
2013-07-11 05:39:00,76.1,71.3,30.00,SSE,164,0.0,0.0,85,0.00,,---,0.04,VWS V14.01,2013-07-11 09:39:00,
2013-07-11 05:40:00,76.1,71.3,30.00,SSE,164,0.0,0.0,85,0.00,,---,0.04,VWS V14.01,2013-07-11 09:40:00,
2013-07-11 05:41:00,76.1,71.3,30.00,SSE,164,0.0,0.0,85,0.00,,---,0.04,VWS V14.01,2013-07-11 09:41:00,
2013-07-11 05:44:00,75.9,71.1,30.00,WNW,300,0.0,0.0,85,0.00,,---,0.04,VWS V14.01,2013-07-11 09:44:00,
2013-07-11 05:45:00,75.9,71.1,30.00,WNW,300,0.0,0.0,85,0.00,,---,0.04,VWS V14.01,2013-07-11 09:45:00,
2013-07-11 05:46:00,75.9,71.1,30.00,WNW,284,2.7,2.7,85,0.00,,---,0.04,VWS V14.01,2013-07-11 09:46:00,
2013-07-11 05:49:00,75.9,71.1,30.00,WNW,284,2.7,2.7,85,0.00,,---,0.04,VWS V14.01,2013-07-11 09:49:00,
2013-07-11 05:50:00,75.9,71.1,30.00,WNW,284,2.7,2.7,85,0.00,,---,0.04,VWS V14.01,2013-07-11 09:50:00,
2013-07-11 05:51:00,75.9,71.1,30.00,WNW,284,2.7,2.7,85,0.00,,---,0.04,VWS V14.01,2013-07-11 09:51:00,
2013-07-11 05:54:00,75.7,70.9,30.00,West,276,5.4,5.4,85,0.00,,---,0.04,VWS V14.01,2013-07-11 09:54:00,
2013-07-11 05:55:00,75.7,70.9,30.00,West,276,5.4,5.4,85,0.00,,---,0.04,VWS V14.01,2013-07-11 09:55:00,
2013-07-11 05:56:00,75.7,70.9,30.00,WNW,289,2.7,2.7,85,0.00,,---,0.04,VWS V14.01,2013-07-11 09:56:00,
2013-07-11 05:57:00,75.7,70.9,30.00,WNW,289,2.7,2.7,85,0.00,,---,0.04,VWS V14.01,2013-07-11 09:57:00,
2013-07-11 05:59:00,75.7,70.9,30.00,WNW,289,2.7,2.7,85,0.00,,---,0.04,VWS V14.01,2013-07-11 09:59:00,
2013-07-11 06:00:00,75.7,70.9,30.00,WNW,289,2.7,2.7,85,0.00,,---,0.04,VWS V14.01,2013-07-11 10:00:00,
2013-07-11 06:01:00,75.7,70.9,30.00,SW,227,0.0,2.7,85,0.00,,---,0.04,VWS V14.01,2013-07-11 10:01:00,
2013-07-11 06:02:00,75.7,70.9,30.00,SW,227,0.0,0.0,85,0.00,,---,0.04,VWS V14.01,2013-07-11 10:02:00,
2013-07-11 06:04:00,75.7,70.9,30.00,South,176,2.2,4.9,85,0.00,,---,0.04,VWS V14.01,2013-07-11 10:04:00,
2013-07-11 06:05:00,75.7,70.9,30.00,South,176,2.2,2.2,85,0.00,,---,0.04,VWS V14.01,2013-07-11 10:05:00,
2013-07-11 06:06:00,75.7,70.9,30.00,South,176,2.2,2.2,85,0.00,,---,0.04,VWS V14.01,2013-07-11 10:06:00,
2013-07-11 06:07:00,75.7,70.9,30.00,South,176,2.2,2.2,85,0.00,,---,0.04,VWS V14.01,2013-07-11 10:07:00,
2013-07-11 06:09:00,75.7,70.9,30.00,SW,230,0.0,4.0,85,0.00,,---,0.04,VWS V14.01,2013-07-11 10:09:00,
2013-07-11 06:10:00,75.7,70.9,30.00,SW,230,0.0,0.0,85,0.00,,---,0.04,VWS V14.01,2013-07-11 10:10:00,
2013-07-11 06:11:00,75.7,70.9,30.00,SW,230,0.0,0.0,85,0.00,,---,0.04,VWS V14.01,2013-07-11 10:11:00,
2013-07-11 06:12:00,75.7,70.9,30.00,SW,230,0.0,0.0,85,0.00,,---,0.04,VWS V14.01,2013-07-11 10:12:00,
2013-07-11 06:14:00,75.7,70.9,30.00,WSW,250,3.1,3.1,85,0.00,,---,0.04,VWS V14.01,2013-07-11 10:14:00,
2013-07-11 06:15:00,75.7,70.9,30.00,WSW,250,3.1,3.1,85,0.00,,---,0.04,VWS V14.01,2013-07-11 10:15:00,
2013-07-11 06:16:00,75.7,70.9,30.00,WSW,250,3.1,3.1,85,0.00,,---,0.04,VWS V14.01,2013-07-11 10:16:00,
2013-07-11 06:17:00,75.7,70.9,30.00,SSW,192,0.0,3.1,85,0.00,,---,0.04,VWS V14.01,2013-07-11 10:17:00,
2013-07-11 06:19:00,75.7,70.9,30.00,WSW,248,0.0,0.0,85,0.00,,---,0.04,VWS V14.01,2013-07-11 10:19:00,
2013-07-11 06:20:00,75.7,70.9,30.00,WSW,248,0.0,0.0,85,0.00,,---,0.04,VWS V14.01,2013-07-11 10:20:00,
2013-07-11 06:21:00,75.7,70.9,30.00,WSW,248,0.0,0.0,85,0.00,,---,0.04,VWS V14.01,2013-07-11 10:21:00,
2013-07-11 06:22:00,75.7,70.9,30.00,South,173,0.0,0.0,85,0.00,,---,0.04,VWS V14.01,2013-07-11 10:22:00,
2013-07-11 06:25:00,75.7,70.9,30.00,South,173,0.0,0.0,85,0.00,,---,0.04,VWS V14.01,2013-07-11 10:25:00,
2013-07-11 06:26:00,75.7,70.9,30.00,South,173,0.0,0.0,85,0.00,,---,0.04,VWS V14.01,2013-07-11 10:26:00,
2013-07-11 06:27:00,75.7,70.9,30.00,SE,144,0.0,0.0,85,0.00,,---,0.04,VWS V14.01,2013-07-11 10:27:00,
2013-07-11 06:30:00,75.6,70.4,30.00,SE,144,0.0,0.0,84,0.00,,---,0.04,VWS V14.01,2013-07-11 10:30:00,
2013-07-11 06:31:00,75.6,70.4,30.00,SE,144,0.0,0.0,84,0.00,,---,0.04,VWS V14.01,2013-07-11 10:31:00,
2013-07-11 06:32:00,75.6,70.4,30.00,West,276,3.6,3.6,84,0.00,,---,0.04,VWS V14.01,2013-07-11 10:32:00,
2013-07-11 06:35:00,75.6,70.4,30.00,WNW,287,0.0,0.0,84,0.00,,---,0.04,VWS V14.01,2013-07-11 10:35:00,
2013-07-11 06:36:00,75.6,70.4,30.00,WNW,287,0.0,0.0,84,0.00,,---,0.04,VWS V14.01,2013-07-11 10:36:00,
2013-07-11 06:37:00,75.6,70.4,30.00,South,183,0.0,0.0,84,0.00,,---,0.04,VWS V14.01,2013-07-11 10:37:00,
2013-07-11 06:40:00,75.6,70.4,30.00,South,183,0.0,0.0,84,0.00,,---,0.04,VWS V14.01,2013-07-11 10:40:00,
2013-07-11 06:41:00,75.6,70.4,30.00,SW,228,3.1,3.1,84,0.00,,---,0.04,VWS V14.01,2013-07-11 10:41:00,
2013-07-11 06:42:00,75.6,70.4,30.00,SW,228,3.1,3.1,84,0.00,,---,0.04,VWS V14.01,2013-07-11 10:42:00,
2013-07-11 06:45:00,75.6,70.4,30.00,NW,307,0.0,0.0,84,0.00,,---,0.04,VWS V14.01,2013-07-11 10:45:00,
2013-07-11 06:46:00,75.6,70.4,30.00,NW,307,0.0,0.0,84,0.00,,---,0.04,VWS V14.01,2013-07-11 10:46:00,
2013-07-11 06:47:00,75.6,70.4,30.00,WSW,254,0.0,0.0,84,0.00,,---,0.04,VWS V14.01,2013-07-11 10:47:00,
2013-07-11 06:50:00,75.6,70.4,30.00,SSW,199,2.7,2.7,84,0.00,,---,0.04,VWS V14.01,2013-07-11 10:50:00,
2013-07-11 06:51:00,75.6,70.4,30.00,SSW,199,2.7,2.7,84,0.00,,---,0.04,VWS V14.01,2013-07-11 10:51:00,
2013-07-11 06:52:00,75.6,70.4,30.00,SSW,199,2.7,2.7,84,0.00,,---,0.04,VWS V14.01,2013-07-11 10:52:00,
2013-07-11 06:55:00,75.7,70.6,30.00,SSW,210,3.6,3.6,84,0.00,,---,0.04,VWS V14.01,2013-07-11 10:55:00,
2013-07-11 06:56:00,75.7,70.6,30.00,SSW,210,3.6,3.6,84,0.00,,---,0.04,VWS V14.01,2013-07-11 10:56:00,
2013-07-11 06:57:00,75.7,70.6,30.00,North,1,2.2,3.6,84,0.00,,---,0.04,VWS V14.01,2013-07-11 10:57:00,
2013-07-11 07:00:00,75.9,70.7,30.00,West,259,3.1,3.1,84,0.00,,---,0.04,VWS V14.01,2013-07-11 11:00:00,
2013-07-11 07:01:00,75.9,70.7,30.00,NNE,30,0.0,3.1,84,0.00,,---,0.04,VWS V14.01,2013-07-11 11:01:00,
2013-07-11 07:02:00,75.9,70.7,30.00,NNE,20,0.0,0.0,84,0.00,,---,0.04,VWS V14.01,2013-07-11 11:02:00,
2013-07-11 07:05:00,75.9,70.7,30.00,SE,143,2.7,2.7,84,0.00,,---,0.04,VWS V14.01,2013-07-11 11:05:00,
2013-07-11 07:06:00,75.9,70.7,30.00,SE,143,2.7,2.7,84,0.00,,---,0.04,VWS V14.01,2013-07-11 11:06:00,
2013-07-11 07:07:00,76.1,70.9,30.00,South,180,0.0,0.0,84,0.00,,---,0.04,VWS V14.01,2013-07-11 11:07:00,
2013-07-11 07:10:00,76.1,70.9,30.00,West,264,0.0,3.6,84,0.00,,---,0.04,VWS V14.01,2013-07-11 11:10:00,
2013-07-11 07:11:00,76.1,70.9,30.00,West,264,0.0,3.6,84,0.00,,---,0.04,VWS V14.01,2013-07-11 11:11:00,
2013-07-11 07:12:00,76.1,70.9,30.00,West,264,0.0,0.0,84,0.00,,---,0.04,VWS V14.01,2013-07-11 11:12:00,
2013-07-11 07:15:00,76.3,71.1,30.00,West,264,0.0,0.0,84,0.00,,---,0.04,VWS V14.01,2013-07-11 11:15:00,
2013-07-11 07:16:00,76.3,71.1,30.00,West,264,0.0,0.0,84,0.00,,---,0.04,VWS V14.01,2013-07-11 11:16:00,
2013-07-11 07:17:00,76.3,71.1,30.00,West,264,0.0,0.0,84,0.00,,---,0.04,VWS V14.01,2013-07-11 11:17:00,
2013-07-11 07:20:00,76.3,71.1,30.03,West,259,0.0,0.0,84,0.00,,---,0.04,VWS V14.01,2013-07-11 11:20:00,
2013-07-11 07:21:00,76.3,71.1,30.03,SSW,213,0.0,0.0,84,0.00,,---,0.04,VWS V14.01,2013-07-11 11:21:00,
2013-07-11 07:22:00,76.3,71.1,30.03,SSW,213,0.0,0.0,84,0.00,,---,0.04,VWS V14.01,2013-07-11 11:22:00,
2013-07-11 07:25:00,76.5,71.3,30.03,WSW,258,5.8,5.8,84,0.00,,---,0.04,VWS V14.01,2013-07-11 11:25:00,
2013-07-11 07:26:00,76.5,71.3,30.03,WSW,258,5.8,5.8,84,0.00,,---,0.04,VWS V14.01,2013-07-11 11:26:00,
2013-07-11 07:27:00,76.5,71.3,30.03,WNW,300,2.7,2.7,84,0.00,,---,0.04,VWS V14.01,2013-07-11 11:27:00,
2013-07-11 07:30:00,76.5,71.3,30.03,West,266,0.0,0.0,84,0.00,,---,0.04,VWS V14.01,2013-07-11 11:30:00,
2013-07-11 07:31:00,76.5,71.3,30.03,West,266,0.0,0.0,84,0.00,,---,0.04,VWS V14.01,2013-07-11 11:31:00,
2013-07-11 07:32:00,76.5,71.3,30.03,SSW,203,2.2,4.0,84,0.00,,---,0.04,VWS V14.01,2013-07-11 11:32:00,
2013-07-11 07:35:00,76.5,71.3,30.03,SE,138,0.0,0.0,84,0.00,,---,0.04,VWS V14.01,2013-07-11 11:35:00,
2013-07-11 07:36:00,76.5,71.3,30.03,WSW,246,0.0,0.0,84,0.00,,---,0.04,VWS V14.01,2013-07-11 11:36:00,
2013-07-11 07:37:00,76.5,71.3,30.03,WSW,246,0.0,0.0,84,0.00,,---,0.04,VWS V14.01,2013-07-11 11:37:00,
2013-07-11 07:40:00,76.8,71.6,30.03,WSW,237,0.0,0.0,84,0.00,,---,0.04,VWS V14.01,2013-07-11 11:40:00,
2013-07-11 07:41:00,76.8,71.6,30.03,WSW,237,0.0,0.0,84,0.00,,---,0.04,VWS V14.01,2013-07-11 11:41:00,
2013-07-11 07:42:00,76.8,71.6,30.03,West,279,5.4,5.4,84,0.00,,---,0.04,VWS V14.01,2013-07-11 11:42:00,
2013-07-11 07:43:00,76.8,71.6,30.03,WSW,240,3.1,5.4,84,0.00,,---,0.04,VWS V14.01,2013-07-11 11:43:00,
2013-07-11 07:45:00,77.0,71.8,30.03,WNW,288,3.6,3.6,84,0.00,,---,0.04,VWS V14.01,2013-07-11 11:45:00,
2013-07-11 07:46:00,77.0,71.8,30.03,West,262,3.1,3.6,84,0.00,,---,0.04,VWS V14.01,2013-07-11 11:46:00,
2013-07-11 07:47:00,77.2,72.0,30.03,West,262,3.1,3.1,84,0.00,,---,0.04,VWS V14.01,2013-07-11 11:47:00,
2013-07-11 07:48:00,77.2,72.0,30.03,West,262,3.1,3.1,84,0.00,,---,0.04,VWS V14.01,2013-07-11 11:48:00,
2013-07-11 07:50:00,77.4,72.2,30.03,WNW,293,2.7,3.1,84,0.00,,---,0.04,VWS V14.01,2013-07-11 11:50:00,
2013-07-11 07:51:00,77.4,72.2,30.03,WNW,293,2.7,3.1,84,0.00,,---,0.04,VWS V14.01,2013-07-11 11:51:00,
2013-07-11 07:52:00,77.5,72.3,30.03,West,264,0.0,2.7,84,0.00,,---,0.04,VWS V14.01,2013-07-11 11:52:00,
2013-07-11 07:53:00,77.5,72.3,30.03,WSW,258,4.9,4.9,84,0.00,,---,0.04,VWS V14.01,2013-07-11 11:53:00,
2013-07-11 07:56:00,77.7,72.2,30.03,SSW,192,2.2,2.2,83,0.00,,---,0.04,VWS V14.01,2013-07-11 11:56:00,
2013-07-11 07:57:00,77.7,72.2,30.03,SSW,192,2.2,2.2,83,0.00,,---,0.04,VWS V14.01,2013-07-11 11:57:00,
2013-07-11 07:58:00,77.9,72.3,30.03,SSW,192,2.2,2.2,83,0.00,,---,0.04,VWS V14.01,2013-07-11 11:58:00,
2013-07-11 08:01:00,78.1,72.5,30.03,WSW,247,2.7,2.7,83,0.00,,---,0.04,VWS V14.01,2013-07-11 12:01:00,
2013-07-11 08:02:00,78.1,72.5,30.03,South,191,0.0,0.0,83,0.00,,---,0.04,VWS V14.01,2013-07-11 12:02:00,
2013-07-11 08:03:00,78.1,72.5,30.03,SW,233,0.0,2.2,83,0.00,,---,0.04,VWS V14.01,2013-07-11 12:03:00,
2013-07-11 08:06:00,78.3,72.3,30.03,West,268,0.0,0.0,82,0.00,,---,0.04,VWS V14.01,2013-07-11 12:06:00,
2013-07-11 08:07:00,78.3,72.3,30.03,WNW,299,0.0,0.0,82,0.00,,---,0.04,VWS V14.01,2013-07-11 12:07:00,
2013-07-11 08:08:00,78.4,72.5,30.03,WNW,299,0.0,0.0,82,0.00,,---,0.04,VWS V14.01,2013-07-11 12:08:00,
2013-07-11 08:11:00,78.4,72.1,30.03,WNW,291,4.9,4.9,81,0.00,,---,0.04,VWS V14.01,2013-07-11 12:11:00,
2013-07-11 08:12:00,78.3,70.8,30.03,SW,231,3.6,3.6,78,0.00,,---,0.04,VWS V14.01,2013-07-11 12:12:00,
2013-07-11 08:13:00,78.3,70.8,30.03,SW,231,3.6,3.6,78,0.00,,---,0.04,VWS V14.01,2013-07-11 12:13:00,
2013-07-11 08:16:00,78.3,70.5,30.03,WNW,287,3.6,3.6,77,0.00,,---,0.04,VWS V14.01,2013-07-11 12:16:00,
2013-07-11 08:17:00,78.3,70.5,30.03,West,270,3.6,3.6,77,0.00,,---,0.04,VWS V14.01,2013-07-11 12:17:00,
2013-07-11 08:18:00,78.3,69.3,30.03,West,270,3.6,3.6,74,0.00,,---,0.04,VWS V14.01,2013-07-11 12:18:00,
2013-07-11 08:21:00,78.3,69.3,30.03,West,278,0.0,3.6,74,0.00,,---,0.04,VWS V14.01,2013-07-11 12:21:00,
2013-07-11 08:22:00,78.3,69.3,30.03,SW,229,0.0,0.0,74,0.00,,---,0.04,VWS V14.01,2013-07-11 12:22:00,
2013-07-11 08:23:00,78.3,69.3,30.03,SW,229,0.0,0.0,74,0.00,,---,0.04,VWS V14.01,2013-07-11 12:23:00,
2013-07-11 08:26:00,78.3,69.3,30.03,SSW,211,3.6,3.6,74,0.00,,---,0.04,VWS V14.01,2013-07-11 12:26:00,
2013-07-11 08:27:00,78.6,68.4,30.03,WSW,243,2.2,2.2,71,0.00,,---,0.04,VWS V14.01,2013-07-11 12:27:00,
2013-07-11 08:28:00,78.6,68.4,30.03,NW,310,2.2,2.2,71,0.00,,---,0.04,VWS V14.01,2013-07-11 12:28:00,
2013-07-11 08:31:00,78.8,67.8,30.03,SSW,201,0.0,3.6,69,0.00,,---,0.04,VWS V14.01,2013-07-11 12:31:00,
2013-07-11 08:32:00,78.8,67.8,30.03,SSW,201,0.0,0.0,69,0.00,,---,0.04,VWS V14.01,2013-07-11 12:32:00,
2013-07-11 08:33:00,79.0,67.9,30.03,SSW,201,0.0,0.0,69,0.00,,---,0.04,VWS V14.01,2013-07-11 12:33:00,
2013-07-11 08:36:00,79.0,67.9,30.03,SSW,201,0.0,0.0,69,0.00,,---,0.04,VWS V14.01,2013-07-11 12:36:00,
2013-07-11 08:37:00,78.8,66.5,30.03,West,264,0.0,0.0,66,0.00,,---,0.04,VWS V14.01,2013-07-11 12:37:00,
2013-07-11 08:38:00,78.8,66.5,30.03,WNW,298,2.2,2.2,66,0.00,,---,0.04,VWS V14.01,2013-07-11 12:38:00,
2013-07-11 08:41:00,78.8,66.5,30.03,WSW,239,0.0,0.0,66,0.00,,---,0.04,VWS V14.01,2013-07-11 12:41:00,
2013-07-11 08:42:00,78.8,66.5,30.03,WSW,239,0.0,0.0,66,0.00,,---,0.04,VWS V14.01,2013-07-11 12:42:00,
2013-07-11 08:43:00,78.8,66.5,30.03,WSW,248,4.0,4.0,66,0.00,,---,0.04,VWS V14.01,2013-07-11 12:43:00,
2013-07-11 08:46:00,78.6,65.9,30.03,South,176,2.2,2.2,65,0.00,,---,0.04,VWS V14.01,2013-07-11 12:46:00,
2013-07-11 08:47:00,78.6,65.9,30.03,South,176,2.2,2.2,65,0.00,,---,0.04,VWS V14.01,2013-07-11 12:47:00,
2013-07-11 08:48:00,78.6,65.9,30.03,SSW,200,0.0,0.0,65,0.00,,---,0.04,VWS V14.01,2013-07-11 12:48:00,
2013-07-11 08:51:00,78.6,65.9,30.03,SSW,200,0.0,0.0,65,0.00,,---,0.04,VWS V14.01,2013-07-11 12:51:00,
2013-07-11 08:52:00,78.6,65.9,30.03,West,261,0.0,3.6,65,0.00,,---,0.04,VWS V14.01,2013-07-11 12:52:00,
2013-07-11 08:54:00,78.6,65.9,30.03,WSW,254,0.0,0.0,65,0.00,,---,0.04,VWS V14.01,2013-07-11 12:54:00,
2013-07-11 08:56:00,78.6,65.9,30.03,WSW,252,0.0,0.0,65,0.00,,---,0.04,VWS V14.01,2013-07-11 12:56:00,
2013-07-11 08:57:00,78.6,65.9,30.03,West,260,5.8,5.8,65,0.00,,---,0.04,VWS V14.01,2013-07-11 12:57:00,
2013-07-11 08:59:00,78.6,65.9,30.03,WSW,251,0.0,5.8,65,0.00,,---,0.04,VWS V14.01,2013-07-11 12:59:00,
2013-07-11 09:01:00,78.6,65.9,30.03,WSW,251,0.0,0.0,65,0.00,,---,0.04,VWS V14.01,2013-07-11 13:01:00,
2013-07-11 09:02:00,78.6,65.9,30.03,West,268,0.0,0.0,65,0.00,,---,0.04,VWS V14.01,2013-07-11 13:02:00,
2013-07-11 09:04:00,78.6,65.4,30.03,WSW,250,0.0,0.0,64,0.00,,---,0.04,VWS V14.01,2013-07-11 13:04:00,
2013-07-11 09:06:00,78.6,65.4,30.03,SW,219,0.0,2.7,64,0.00,,---,0.04,VWS V14.01,2013-07-11 13:06:00,
2013-07-11 09:07:00,78.6,65.4,30.03,SW,219,0.0,0.0,64,0.00,,---,0.04,VWS V14.01,2013-07-11 13:07:00,
2013-07-11 09:09:00,78.6,65.4,30.03,South,190,0.0,0.0,64,0.00,,---,0.04,VWS V14.01,2013-07-11 13:09:00,
2013-07-11 09:11:00,78.6,65.4,30.03,SSW,194,0.0,0.0,64,0.00,,---,0.04,VWS V14.01,2013-07-11 13:11:00,
2013-07-11 09:13:00,78.6,65.4,30.03,SW,227,0.0,0.0,64,0.00,,---,0.04,VWS V14.01,2013-07-11 13:13:00,
2013-07-11 09:15:00,79.0,65.8,30.03,SSE,157,0.0,0.0,64,0.00,,---,0.04,VWS V14.01,2013-07-11 13:15:00,
2013-07-11 09:17:00,79.0,65.8,30.03,SSE,157,0.0,0.0,64,0.00,,---,0.04,VWS V14.01,2013-07-11 13:17:00,
2013-07-11 09:18:00,79.0,65.8,30.03,SSE,157,0.0,0.0,64,0.00,,---,0.04,VWS V14.01,2013-07-11 13:18:00,
2013-07-11 09:20:00,79.0,65.8,30.03,East,101,2.2,2.7,64,0.00,,---,0.04,VWS V14.01,2013-07-11 13:20:00,
2013-07-11 09:22:00,80.2,66.5,30.03,East,101,2.2,2.2,63,0.00,,---,0.04,VWS V14.01,2013-07-11 13:22:00,
2013-07-11 09:23:00,80.2,66.1,30.03,East,98,5.4,5.4,62,0.00,,---,0.04,VWS V14.01,2013-07-11 13:23:00,
2013-07-11 09:25:00,80.2,64.6,30.03,East,98,5.4,5.4,59,0.00,,---,0.04,VWS V14.01,2013-07-11 13:25:00,
2013-07-11 09:27:00,80.2,64.6,30.03,West,279,4.9,4.9,59,0.00,,---,0.04,VWS V14.01,2013-07-11 13:27:00,
2013-07-11 09:28:00,80.2,63.1,30.03,West,279,4.9,4.9,56,0.00,,---,0.04,VWS V14.01,2013-07-11 13:28:00,
2013-07-11 09:29:00,80.2,63.1,30.03,West,279,4.9,4.9,56,0.00,,---,0.04,VWS V14.01,2013-07-11 13:29:00,
2013-07-11 09:30:00,80.2,63.1,30.03,West,279,4.9,4.9,56,0.00,,---,0.04,VWS V14.01,2013-07-11 13:30:00,
2013-07-11 09:32:00,80.4,63.3,30.03,SSW,202,3.6,3.6,56,0.00,,---,0.04,VWS V14.01,2013-07-11 13:32:00,
2013-07-11 09:33:00,80.6,63.0,30.03,NW,325,2.2,3.6,55,0.00,,---,0.04,VWS V14.01,2013-07-11 13:33:00,
2013-07-11 09:34:00,80.6,63.0,30.03,NW,325,2.2,2.2,55,0.00,,---,0.04,VWS V14.01,2013-07-11 13:34:00,
2013-07-11 09:36:00,80.6,63.0,30.03,SW,223,0.0,0.0,55,0.00,,---,0.04,VWS V14.01,2013-07-11 13:36:00,
2013-07-11 09:37:00,80.6,63.0,30.03,SE,143,3.1,3.1,55,0.00,,---,0.04,VWS V14.01,2013-07-11 13:37:00,
2013-07-11 09:39:00,81.1,62.4,30.03,SE,143,3.1,3.1,53,0.00,,---,0.04,VWS V14.01,2013-07-11 13:39:00,
2013-07-11 09:40:00,81.1,62.4,30.03,SE,143,3.1,3.1,53,0.00,,---,0.04,VWS V14.01,2013-07-11 13:40:00,
2013-07-11 09:41:00,81.1,62.4,30.03,SW,216,0.0,0.0,53,0.00,,---,0.04,VWS V14.01,2013-07-11 13:41:00,
2013-07-11 09:42:00,81.1,62.4,30.03,SW,216,0.0,0.0,53,0.00,,---,0.04,VWS V14.01,2013-07-11 13:42:00,
2013-07-11 09:44:00,81.9,62.5,30.03,South,188,2.7,2.7,52,0.00,,---,0.04,VWS V14.01,2013-07-11 13:44:00,
2013-07-11 09:45:00,81.9,61.4,30.03,South,188,2.7,2.7,50,0.00,,---,0.04,VWS V14.01,2013-07-11 13:45:00,
2013-07-11 09:46:00,81.9,61.4,30.03,SSE,159,2.2,2.2,50,0.00,,---,0.04,VWS V14.01,2013-07-11 13:46:00,
2013-07-11 09:48:00,82.0,60.4,30.03,West,274,4.9,4.9,48,0.00,,---,0.04,VWS V14.01,2013-07-11 13:48:00,
2013-07-11 09:49:00,81.9,59.1,30.03,West,274,4.9,4.9,46,0.00,,---,0.04,VWS V14.01,2013-07-11 13:49:00,
2013-07-11 09:50:00,81.9,59.1,30.03,West,274,4.9,4.9,46,0.00,,---,0.04,VWS V14.01,2013-07-11 13:50:00,
2013-07-11 09:51:00,81.7,57.7,30.03,WSW,258,2.7,2.7,44,0.00,,---,0.04,VWS V14.01,2013-07-11 13:51:00,
2013-07-11 09:53:00,81.7,57.7,30.03,WSW,258,2.7,2.7,44,0.00,,---,0.04,VWS V14.01,2013-07-11 13:53:00,
2013-07-11 09:54:00,81.9,58.5,30.03,WSW,258,2.7,2.7,45,0.00,,---,0.04,VWS V14.01,2013-07-11 13:54:00,
2013-07-11 09:55:00,81.9,58.5,30.03,South,178,0.0,0.0,45,0.00,,---,0.04,VWS V14.01,2013-07-11 13:55:00,
2013-07-11 09:58:00,82.0,58.6,30.03,South,178,0.0,0.0,45,0.00,,---,0.04,VWS V14.01,2013-07-11 13:58:00,
2013-07-11 09:59:00,82.0,58.6,30.03,South,178,0.0,0.0,45,0.00,,---,0.04,VWS V14.01,2013-07-11 13:59:00,
2013-07-11 10:00:00,82.2,59.4,30.03,South,178,0.0,0.0,46,0.00,,---,0.04,VWS V14.01,2013-07-11 14:00:00,
2013-07-11 10:03:00,82.2,59.4,30.03,SSW,207,3.1,3.1,46,0.00,,---,0.04,VWS V14.01,2013-07-11 14:03:00,
2013-07-11 10:04:00,82.2,59.4,30.03,SW,218,2.2,2.2,46,0.00,,---,0.04,VWS V14.01,2013-07-11 14:04:00,
2013-07-11 10:05:00,82.8,59.3,30.03,SW,223,4.0,4.0,45,0.00,,---,0.04,VWS V14.01,2013-07-11 14:05:00,
2013-07-11 10:08:00,82.8,59.3,30.03,SW,223,4.0,4.0,45,0.00,,---,0.04,VWS V14.01,2013-07-11 14:08:00,
2013-07-11 10:10:00,82.9,57.5,30.03,SSE,164,2.7,2.7,42,0.00,,---,0.04,VWS V14.01,2013-07-11 14:10:00,
2013-07-11 10:11:00,82.9,57.5,30.03,SSE,164,2.7,2.7,42,0.00,,---,0.04,VWS V14.01,2013-07-11 14:11:00,
2013-07-11 10:14:00,83.5,58.7,30.03,SW,225,3.1,3.1,43,0.00,,---,0.04,VWS V14.01,2013-07-11 14:14:00,
2013-07-11 10:15:00,83.8,59.0,30.03,SW,225,3.1,3.1,43,0.00,,---,0.04,VWS V14.01,2013-07-11 14:15:00,
2013-07-11 10:16:00,83.8,59.0,30.03,SSW,205,4.0,4.0,43,0.00,,---,0.04,VWS V14.01,2013-07-11 14:16:00,
2013-07-11 10:19:00,83.8,59.0,30.03,SW,224,0.0,3.1,43,0.00,,---,0.04,VWS V14.01,2013-07-11 14:19:00,
2013-07-11 10:20:00,84.6,57.6,30.03,SW,224,0.0,0.0,40,0.00,,---,0.04,VWS V14.01,2013-07-11 14:20:00,
2013-07-11 10:21:00,84.6,57.6,30.03,SW,224,0.0,0.0,40,0.00,,---,0.04,VWS V14.01,2013-07-11 14:21:00,
2013-07-11 10:24:00,84.9,58.6,30.03,North,353,0.0,0.0,41,0.00,,---,0.04,VWS V14.01,2013-07-11 14:24:00,
2013-07-11 10:25:00,85.1,58.8,30.03,North,353,0.0,0.0,41,0.00,,---,0.04,VWS V14.01,2013-07-11 14:25:00,
2013-07-11 10:26:00,85.1,58.8,30.03,North,353,0.0,0.0,41,0.00,,---,0.04,VWS V14.01,2013-07-11 14:26:00,
2013-07-11 10:27:00,85.1,58.8,30.03,NW,309,5.8,5.8,41,0.00,,---,0.04,VWS V14.01,2013-07-11 14:27:00,
2013-07-11 10:29:00,85.5,57.7,30.03,SE,136,3.1,5.8,39,0.00,,---,0.04,VWS V14.01,2013-07-11 14:29:00,
2013-07-11 10:31:00,85.5,57.7,30.03,SW,222,3.1,3.1,39,0.00,,---,0.04,VWS V14.01,2013-07-11 14:31:00,
2013-07-11 10:32:00,85.5,57.7,30.03,SW,222,3.1,3.1,39,0.00,,---,0.04,VWS V14.01,2013-07-11 14:32:00,
2013-07-11 10:34:00,85.1,57.4,30.03,SW,222,3.1,3.1,39,0.00,,---,0.04,VWS V14.01,2013-07-11 14:34:00,
2013-07-11 10:36:00,85.5,58.4,30.00,SW,222,3.1,3.1,40,0.00,,---,0.04,VWS V14.01,2013-07-11 14:36:00,
2013-07-11 10:37:00,85.5,58.4,30.00,SW,222,3.1,3.1,40,0.00,,---,0.04,VWS V14.01,2013-07-11 14:37:00,
2013-07-11 10:38:00,85.6,58.6,30.00,North,1,2.7,3.1,40,0.00,,---,0.04,VWS V14.01,2013-07-11 14:38:00,
2013-07-11 10:39:00,85.8,58.0,30.00,North,1,2.7,2.7,39,0.00,,---,0.04,VWS V14.01,2013-07-11 14:39:00,
2013-07-11 10:41:00,85.8,58.0,30.00,North,1,2.7,2.7,39,0.00,,---,0.04,VWS V14.01,2013-07-11 14:41:00,
2013-07-11 10:42:00,85.8,58.0,30.00,North,1,2.7,2.7,39,0.00,,---,0.04,VWS V14.01,2013-07-11 14:42:00,
2013-07-11 10:43:00,85.8,58.0,30.00,South,186,3.6,3.6,39,0.00,,---,0.04,VWS V14.01,2013-07-11 14:43:00,
2013-07-11 10:44:00,85.8,58.0,30.00,SSE,155,3.6,3.6,39,0.00,,---,0.04,VWS V14.01,2013-07-11 14:44:00,
2013-07-11 10:47:00,85.8,58.0,30.00,SSE,155,3.6,3.6,39,0.00,,---,0.04,VWS V14.01,2013-07-11 14:47:00,
2013-07-11 10:48:00,86.7,58.1,30.00,SSE,155,3.6,3.6,38,0.00,,---,0.04,VWS V14.01,2013-07-11 14:48:00,
2013-07-11 10:49:00,86.9,58.3,30.00,South,191,3.1,3.1,38,0.00,,---,0.04,VWS V14.01,2013-07-11 14:49:00,
2013-07-11 10:52:00,86.9,57.5,30.00,SSW,193,3.1,3.1,37,0.00,,---,0.04,VWS V14.01,2013-07-11 14:52:00,
2013-07-11 10:53:00,86.9,57.5,30.00,WSW,258,7.6,7.6,37,0.00,,---,0.04,VWS V14.01,2013-07-11 14:53:00,
2013-07-11 10:54:00,86.9,57.5,30.00,SSW,196,7.6,7.6,37,0.00,,---,0.04,VWS V14.01,2013-07-11 14:54:00,
2013-07-11 10:57:00,86.9,56.8,30.00,SE,141,3.1,7.6,36,0.00,,---,0.04,VWS V14.01,2013-07-11 14:57:00,
2013-07-11 10:58:00,86.9,56.8,30.00,SSE,163,5.4,5.4,36,0.00,,---,0.04,VWS V14.01,2013-07-11 14:58:00,
2013-07-11 11:00:00,86.9,56.8,30.00,SSE,163,5.4,5.4,36,0.00,,---,0.04,VWS V14.01,2013-07-11 15:00:00,
2013-07-11 11:02:00,86.9,56.8,30.00,SSE,163,5.4,5.4,36,0.00,,---,0.04,VWS V14.01,2013-07-11 15:02:00,
2013-07-11 11:04:00,86.9,56.8,30.00,SE,146,4.0,4.0,36,0.00,,---,0.04,VWS V14.01,2013-07-11 15:04:00,
2013-07-11 11:05:00,86.9,56.8,30.00,SSW,196,3.6,3.6,36,0.00,,---,0.04,VWS V14.01,2013-07-11 15:05:00,
2013-07-11 11:07:00,86.7,56.6,30.03,SSW,196,3.6,3.6,36,0.00,,---,0.04,VWS V14.01,2013-07-11 15:07:00,
2013-07-11 11:08:00,86.7,56.6,30.03,SSW,196,3.6,3.6,36,0.00,,---,0.04,VWS V14.01,2013-07-11 15:08:00,
2013-07-11 11:09:00,86.7,56.6,30.03,SSW,196,3.6,3.6,36,0.00,,---,0.04,VWS V14.01,2013-07-11 15:09:00,
2013-07-11 11:10:00,86.7,56.6,30.03,SE,132,6.3,6.3,36,0.00,,---,0.04,VWS V14.01,2013-07-11 15:10:00,
2013-07-11 11:13:00,86.4,57.0,30.03,South,177,4.0,4.0,37,0.00,,---,0.04,VWS V14.01,2013-07-11 15:13:00,
2013-07-11 11:14:00,86.4,57.0,30.03,South,177,4.0,4.0,37,0.00,,---,0.04,VWS V14.01,2013-07-11 15:14:00,
2013-07-11 11:16:00,86.2,56.9,30.03,South,177,4.0,4.0,37,0.00,,---,0.04,VWS V14.01,2013-07-11 15:16:00,
2013-07-11 11:18:00,85.8,56.6,30.03,South,177,4.0,4.0,37,0.00,,---,0.04,VWS V14.01,2013-07-11 15:18:00,
2013-07-11 11:19:00,85.8,56.6,30.03,South,186,8.3,8.3,37,0.00,,---,0.04,VWS V14.01,2013-07-11 15:19:00,
2013-07-11 11:21:00,85.8,57.3,30.03,SSE,163,5.4,8.3,38,0.00,,---,0.04,VWS V14.01,2013-07-11 15:21:00,
2013-07-11 11:23:00,85.8,57.3,30.03,SSE,156,8.3,8.3,38,0.00,,---,0.04,VWS V14.01,2013-07-11 15:23:00,
2013-07-11 11:24:00,85.8,57.3,30.03,SSW,202,3.6,8.3,38,0.00,,---,0.04,VWS V14.01,2013-07-11 15:24:00,
2013-07-11 11:26:00,86.0,57.5,30.03,SSW,202,3.6,3.6,38,0.00,,---,0.04,VWS V14.01,2013-07-11 15:26:00,
2013-07-11 11:28:00,86.0,57.5,30.03,SSW,202,3.6,3.6,38,0.00,,---,0.04,VWS V14.01,2013-07-11 15:28:00,
2013-07-11 11:29:00,86.0,57.5,30.03,South,178,3.1,3.1,38,0.00,,---,0.04,VWS V14.01,2013-07-11 15:29:00,
2013-07-11 11:31:00,86.0,57.5,30.03,South,178,3.1,3.1,38,0.00,,---,0.04,VWS V14.01,2013-07-11 15:31:00,
2013-07-11 11:33:00,85.8,58.0,30.03,SSE,152,7.2,7.2,39,0.00,,---,0.04,VWS V14.01,2013-07-11 15:33:00,
2013-07-11 11:34:00,85.8,58.0,30.03,SSE,152,7.2,7.2,39,0.00,,---,0.04,VWS V14.01,2013-07-11 15:34:00,
2013-07-11 11:36:00,85.8,58.0,30.03,SSE,163,5.8,7.2,39,0.00,,---,0.04,VWS V14.01,2013-07-11 15:36:00,
2013-07-11 11:39:00,85.8,58.0,30.03,SSE,163,5.8,5.8,39,0.00,,---,0.04,VWS V14.01,2013-07-11 15:39:00,
2013-07-11 11:40:00,86.9,57.5,30.03,South,170,3.6,5.8,37,0.00,,---,0.04,VWS V14.01,2013-07-11 15:40:00,
2013-07-11 11:41:00,87.1,57.7,30.03,South,170,3.6,3.6,37,0.00,,---,0.04,VWS V14.01,2013-07-11 15:41:00,
2013-07-11 11:44:00,87.1,58.4,30.03,South,170,3.6,3.6,38,0.00,,---,0.04,VWS V14.01,2013-07-11 15:44:00,
2013-07-11 11:45:00,87.4,57.2,30.03,WNW,292,2.7,3.6,36,0.00,,---,0.04,VWS V14.01,2013-07-11 15:45:00,
2013-07-11 11:46:00,87.4,57.2,30.03,ESE,122,8.7,8.7,36,0.00,,---,0.04,VWS V14.01,2013-07-11 15:46:00,
2013-07-11 11:49:00,87.6,56.6,30.03,ESE,122,8.7,8.7,35,0.00,,---,0.04,VWS V14.01,2013-07-11 15:49:00,
2013-07-11 11:50:00,87.3,56.3,30.03,SSE,159,5.4,5.4,35,0.00,,---,0.04,VWS V14.01,2013-07-11 15:50:00,
2013-07-11 11:52:00,87.3,56.3,30.03,SSE,159,5.4,5.4,35,0.00,,---,0.04,VWS V14.01,2013-07-11 15:52:00,
2013-07-11 11:54:00,87.3,56.3,30.03,SSW,194,6.3,6.3,35,0.00,,---,0.04,VWS V14.01,2013-07-11 15:54:00,
2013-07-11 11:55:00,87.3,56.3,30.03,South,177,5.8,5.8,35,0.00,,---,0.04,VWS V14.01,2013-07-11 15:55:00,
2013-07-11 11:58:00,87.1,56.9,30.03,South,177,5.8,5.8,36,0.00,,---,0.04,VWS V14.01,2013-07-11 15:58:00,
2013-07-11 11:59:00,87.3,57.1,30.03,South,177,5.8,5.8,36,0.00,,---,0.04,VWS V14.01,2013-07-11 15:59:00,
2013-07-11 12:01:00,87.3,57.1,30.03,SSW,211,4.9,7.2,36,0.00,,---,0.04,VWS V14.01,2013-07-11 16:01:00,
2013-07-11 12:03:00,87.3,57.1,30.03,South,184,7.2,7.2,36,0.00,,---,0.04,VWS V14.01,2013-07-11 16:03:00,
2013-07-11 12:04:00,87.3,57.1,30.03,South,184,7.2,7.2,36,0.00,,---,0.04,VWS V14.01,2013-07-11 16:04:00,
2013-07-11 12:06:00,87.3,57.1,30.03,South,184,7.2,7.2,36,0.00,,---,0.04,VWS V14.01,2013-07-11 16:06:00,
2013-07-11 12:08:00,87.3,57.1,30.00,SSE,149,4.0,4.0,36,0.00,,---,0.04,VWS V14.01,2013-07-11 16:08:00,
2013-07-11 12:10:00,87.3,57.1,30.00,SSE,149,4.0,4.0,36,0.00,,---,0.04,VWS V14.01,2013-07-11 16:10:00,
2013-07-11 12:11:00,87.4,54.8,30.00,SSE,149,4.0,4.0,33,0.00,,---,0.04,VWS V14.01,2013-07-11 16:11:00,
2013-07-11 12:14:00,87.6,55.8,30.00,SSW,204,6.3,6.3,34,0.00,,---,0.04,VWS V14.01,2013-07-11 16:14:00,
2013-07-11 12:15:00,87.6,55.8,30.00,SW,219,2.7,6.3,34,0.00,,---,0.04,VWS V14.01,2013-07-11 16:15:00,
2013-07-11 12:16:00,87.6,55.8,30.00,SW,219,2.7,2.7,34,0.00,,---,0.04,VWS V14.01,2013-07-11 16:16:00,
2013-07-11 12:19:00,88.0,56.1,30.00,South,170,5.8,5.8,34,0.00,,---,0.04,VWS V14.01,2013-07-11 16:19:00,
2013-07-11 12:20:00,88.0,56.1,30.00,South,170,5.8,5.8,34,0.00,,---,0.04,VWS V14.01,2013-07-11 16:20:00,
2013-07-11 12:21:00,88.0,56.1,30.00,South,181,5.4,5.4,34,0.00,,---,0.04,VWS V14.01,2013-07-11 16:21:00,
2013-07-11 12:22:00,88.0,56.1,30.00,South,177,8.3,8.3,34,0.00,,---,0.04,VWS V14.01,2013-07-11 16:22:00,
2013-07-11 12:24:00,88.7,55.9,30.00,South,177,8.3,8.3,33,0.00,,---,0.04,VWS V14.01,2013-07-11 16:24:00,
2013-07-11 12:25:00,88.9,56.1,30.00,South,177,8.3,8.3,33,0.00,,---,0.04,VWS V14.01,2013-07-11 16:25:00,
2013-07-11 12:26:00,88.9,56.1,30.00,East,82,4.0,4.0,33,0.00,,---,0.04,VWS V14.01,2013-07-11 16:26:00,
2013-07-11 12:27:00,89.2,56.4,30.00,East,82,4.0,4.0,33,0.00,,---,0.04,VWS V14.01,2013-07-11 16:27:00,
2013-07-11 12:29:00,89.2,56.4,30.00,WNW,298,3.6,4.0,33,0.00,,---,0.04,VWS V14.01,2013-07-11 16:29:00,
2013-07-11 12:30:00,89.2,56.4,30.00,WNW,298,3.6,3.6,33,0.00,,---,0.04,VWS V14.01,2013-07-11 16:30:00,
2013-07-11 12:31:00,89.2,56.4,30.00,WNW,298,3.6,3.6,33,0.00,,---,0.04,VWS V14.01,2013-07-11 16:31:00,
2013-07-11 12:32:00,89.2,56.4,30.00,WNW,298,3.6,3.6,33,0.00,,---,0.04,VWS V14.01,2013-07-11 16:32:00,
2013-07-11 12:35:00,89.2,56.4,30.00,WNW,298,3.6,3.6,33,0.00,,---,0.04,VWS V14.01,2013-07-11 16:35:00,
2013-07-11 12:36:00,88.3,54.8,30.00,SW,228,2.7,2.7,32,0.00,,---,0.04,VWS V14.01,2013-07-11 16:36:00,
2013-07-11 12:37:00,88.3,54.8,30.00,SW,228,2.7,2.7,32,0.00,,---,0.04,VWS V14.01,2013-07-11 16:37:00,
2013-07-11 12:40:00,88.2,54.6,30.00,SW,228,2.7,2.7,32,0.00,,---,0.04,VWS V14.01,2013-07-11 16:40:00,
2013-07-11 12:42:00,88.2,54.6,30.00,SW,228,2.7,2.7,32,0.00,,---,0.04,VWS V14.01,2013-07-11 16:42:00,
2013-07-11 12:45:00,88.2,54.6,30.00,South,173,4.0,4.0,32,0.00,,---,0.04,VWS V14.01,2013-07-11 16:45:00,
2013-07-11 12:46:00,88.2,54.6,30.00,South,178,5.4,5.4,32,0.00,,---,0.04,VWS V14.01,2013-07-11 16:46:00,
2013-07-11 12:47:00,88.2,54.6,30.00,South,178,5.4,5.4,32,0.00,,---,0.04,VWS V14.01,2013-07-11 16:47:00,
2013-07-11 12:48:00,88.2,54.6,30.00,South,178,5.4,5.4,32,0.00,,---,0.04,VWS V14.01,2013-07-11 16:48:00,
2013-07-11 12:51:00,88.0,54.5,30.00,SSE,157,4.5,6.3,32,0.00,,---,0.04,VWS V14.01,2013-07-11 16:51:00,
2013-07-11 12:52:00,88.0,54.5,30.00,SSE,157,4.5,4.5,32,0.00,,---,0.04,VWS V14.01,2013-07-11 16:52:00,
2013-07-11 12:53:00,88.0,54.5,30.00,SSE,157,4.5,4.5,32,0.00,,---,0.04,VWS V14.01,2013-07-11 16:53:00,
2013-07-11 12:56:00,86.7,53.4,30.00,South,186,5.8,10.1,32,0.00,,---,0.04,VWS V14.01,2013-07-11 16:56:00,
2013-07-11 12:57:00,86.7,53.4,30.00,South,186,5.8,5.8,32,0.00,,---,0.04,VWS V14.01,2013-07-11 16:57:00,
2013-07-11 12:58:00,86.7,53.4,30.00,South,186,5.8,5.8,32,0.00,,---,0.04,VWS V14.01,2013-07-11 16:58:00,
2013-07-11 13:02:00,86.7,55.8,30.00,SSW,194,4.0,4.0,35,0.00,,---,0.04,VWS V14.01,2013-07-11 17:02:00,
2013-07-11 13:03:00,86.7,55.8,30.00,SSE,148,8.7,8.7,35,0.00,,---,0.04,VWS V14.01,2013-07-11 17:03:00,
2013-07-11 13:07:00,87.1,55.3,30.00,SSE,148,8.7,8.7,34,0.00,,---,0.04,VWS V14.01,2013-07-11 17:07:00,
2013-07-11 13:08:00,87.1,55.3,30.00,SSE,148,8.7,8.7,34,0.00,,---,0.04,VWS V14.01,2013-07-11 17:08:00,
2013-07-11 13:12:00,87.1,55.3,30.00,SSW,206,5.8,5.8,34,0.00,,---,0.04,VWS V14.01,2013-07-11 17:12:00,
2013-07-11 13:13:00,87.1,55.3,30.00,SSW,206,5.8,5.8,34,0.00,,---,0.04,VWS V14.01,2013-07-11 17:13:00,
2013-07-11 13:17:00,87.4,54.8,30.00,SSW,206,5.8,5.8,33,0.00,,---,0.04,VWS V14.01,2013-07-11 17:17:00,
2013-07-11 13:18:00,87.4,54.8,30.00,SSE,157,5.4,7.6,33,0.00,,---,0.04,VWS V14.01,2013-07-11 17:18:00,
2013-07-11 13:22:00,87.6,55.0,30.00,SSW,199,8.1,8.1,33,0.00,,---,0.04,VWS V14.01,2013-07-11 17:22:00,
2013-07-11 13:23:00,87.6,55.0,30.00,SW,231,3.1,8.1,33,0.00,,---,0.04,VWS V14.01,2013-07-11 17:23:00,
2013-07-11 13:27:00,87.6,55.0,30.00,SE,129,3.1,3.1,33,0.00,,---,0.04,VWS V14.01,2013-07-11 17:27:00,
2013-07-11 13:28:00,87.6,55.0,30.00,SSW,209,4.0,4.0,33,0.00,,---,0.04,VWS V14.01,2013-07-11 17:28:00,
2013-07-11 13:29:00,87.6,55.0,30.00,SSW,209,4.0,4.0,33,0.00,,---,0.04,VWS V14.01,2013-07-11 17:29:00,
2013-07-11 13:33:00,88.2,55.5,30.00,SSW,194,11.0,11.0,33,0.00,,---,0.04,VWS V14.01,2013-07-11 17:33:00,
2013-07-11 13:34:00,88.3,55.6,30.00,SSW,201,10.1,11.0,33,0.00,,---,0.04,VWS V14.01,2013-07-11 17:34:00,
2013-07-11 13:38:00,88.3,55.6,30.00,South,182,6.3,6.3,33,0.00,,---,0.04,VWS V14.01,2013-07-11 17:38:00,
2013-07-11 13:39:00,88.3,55.6,30.00,South,182,6.3,6.3,33,0.00,,---,0.04,VWS V14.01,2013-07-11 17:39:00,
2013-07-11 13:44:00,89.1,56.2,30.00,South,184,8.1,8.1,33,0.00,,---,0.04,VWS V14.01,2013-07-11 17:44:00,
2013-07-11 13:45:00,89.1,56.2,30.00,SE,139,6.3,8.1,33,0.00,,---,0.04,VWS V14.01,2013-07-11 17:45:00,
2013-07-11 13:49:00,88.7,55.1,30.00,SW,217,4.0,4.0,32,0.00,,---,0.04,VWS V14.01,2013-07-11 17:49:00,
2013-07-11 13:50:00,88.7,55.1,30.00,WSW,247,3.1,4.0,32,0.00,,---,0.04,VWS V14.01,2013-07-11 17:50:00,
2013-07-11 13:54:00,88.7,55.1,30.00,SW,217,4.0,4.0,32,0.00,,---,0.04,VWS V14.01,2013-07-11 17:54:00,
2013-07-11 13:55:00,88.7,55.1,29.97,SSE,163,8.3,8.3,32,0.00,,---,0.04,VWS V14.01,2013-07-11 17:55:00,
2013-07-11 14:00:00,87.6,56.6,29.97,SW,224,2.7,2.7,35,0.00,,---,0.04,VWS V14.01,2013-07-11 18:00:00,
2013-07-11 14:01:00,87.6,56.6,29.97,SW,224,2.7,2.7,35,0.00,,---,0.04,VWS V14.01,2013-07-11 18:01:00,
2013-07-11 14:05:00,87.6,56.6,29.97,SSW,200,6.3,6.3,35,0.00,,---,0.04,VWS V14.01,2013-07-11 18:05:00,
2013-07-11 14:06:00,87.6,56.6,29.97,SSW,200,6.3,6.3,35,0.00,,---,0.04,VWS V14.01,2013-07-11 18:06:00,
2013-07-11 14:07:00,88.0,56.1,29.97,SSW,195,8.7,8.7,34,0.00,,---,0.04,VWS V14.01,2013-07-11 18:07:00,
2013-07-11 14:10:00,88.2,55.5,30.00,WSW,237,3.1,3.1,33,0.00,,---,0.04,VWS V14.01,2013-07-11 18:10:00,
2013-07-11 14:12:00,88.2,55.5,30.00,South,173,4.0,4.0,33,0.00,,---,0.04,VWS V14.01,2013-07-11 18:12:00,
2013-07-11 14:16:00,88.2,55.5,30.00,South,170,5.8,5.8,33,0.00,,---,0.04,VWS V14.01,2013-07-11 18:16:00,
2013-07-11 14:17:00,88.2,55.5,30.00,WSW,255,4.9,4.9,33,0.00,,---,0.04,VWS V14.01,2013-07-11 18:17:00,
2013-07-11 14:21:00,87.6,56.6,30.00,SSE,159,4.9,8.3,35,0.00,,---,0.04,VWS V14.01,2013-07-11 18:21:00,
2013-07-11 14:22:00,87.6,56.6,30.00,SSE,159,4.9,4.9,35,0.00,,---,0.04,VWS V14.01,2013-07-11 18:22:00,
2013-07-11 14:26:00,87.6,56.6,30.00,SSE,159,4.9,4.9,35,0.00,,---,0.04,VWS V14.01,2013-07-11 18:26:00,
2013-07-11 14:27:00,87.6,56.6,30.00,SW,224,0.0,4.9,35,0.00,,---,0.04,VWS V14.01,2013-07-11 18:27:00,
2013-07-11 14:28:00,87.6,56.6,30.00,SSE,159,8.1,8.1,35,0.00,,---,0.04,VWS V14.01,2013-07-11 18:28:00,
2013-07-11 14:32:00,87.8,56.8,30.00,SSE,168,6.3,6.3,35,0.00,,---,0.04,VWS V14.01,2013-07-11 18:32:00,
2013-07-11 14:33:00,87.8,56.8,30.00,SSE,168,6.3,6.3,35,0.00,,---,0.04,VWS V14.01,2013-07-11 18:33:00,
2013-07-11 14:37:00,87.8,56.8,30.00,WSW,255,4.9,4.9,35,0.00,,---,0.04,VWS V14.01,2013-07-11 18:37:00,
2013-07-11 14:38:00,87.8,56.8,30.00,WSW,255,4.9,4.9,35,0.00,,---,0.04,VWS V14.01,2013-07-11 18:38:00,
2013-07-11 14:42:00,87.8,56.8,30.00,SSW,207,2.7,2.7,35,0.00,,---,0.04,VWS V14.01,2013-07-11 18:42:00,
2013-07-11 14:43:00,87.8,56.8,30.00,SSW,200,2.2,4.0,35,0.00,,---,0.04,VWS V14.01,2013-07-11 18:43:00,
2013-07-11 14:44:00,88.2,56.3,30.00,SSW,200,2.2,2.2,34,0.00,,---,0.04,VWS V14.01,2013-07-11 18:44:00,
2013-07-11 14:47:00,88.0,56.9,30.00,SSE,168,2.7,2.7,35,0.00,,---,0.04,VWS V14.01,2013-07-11 18:47:00,
2013-07-11 14:48:00,88.0,56.9,30.00,SSE,168,2.7,2.7,35,0.00,,---,0.04,VWS V14.01,2013-07-11 18:48:00,
2013-07-11 14:49:00,87.6,57.4,30.00,SSE,154,6.3,6.3,36,0.00,,---,0.04,VWS V14.01,2013-07-11 18:49:00,
2013-07-11 14:52:00,87.6,57.4,30.00,SW,230,4.9,4.9,36,0.00,,---,0.04,VWS V14.01,2013-07-11 18:52:00,
2013-07-11 14:53:00,87.6,57.4,30.00,SW,230,4.9,4.9,36,0.00,,---,0.04,VWS V14.01,2013-07-11 18:53:00,
2013-07-11 14:54:00,87.6,57.4,29.97,SW,230,4.9,4.9,36,0.00,,---,0.04,VWS V14.01,2013-07-11 18:54:00,
2013-07-11 14:55:00,87.6,57.4,29.97,SSE,147,8.7,8.7,36,0.00,,---,0.04,VWS V14.01,2013-07-11 18:55:00,
2013-07-11 14:57:00,87.8,59.1,29.97,SSE,147,8.7,8.7,38,0.00,,---,0.04,VWS V14.01,2013-07-11 18:57:00,
2013-07-11 14:58:00,87.6,58.2,29.97,SE,146,3.6,3.6,37,0.00,,---,0.04,VWS V14.01,2013-07-11 18:58:00,
2013-07-11 14:59:00,87.6,58.2,29.97,SE,146,3.6,3.6,37,0.00,,---,0.04,VWS V14.01,2013-07-11 18:59:00,
2013-07-11 15:00:00,87.4,57.2,29.97,SE,146,3.6,3.6,36,0.00,,---,0.04,VWS V14.01,2013-07-11 19:00:00,
2013-07-11 15:02:00,87.4,57.2,29.97,South,180,8.3,8.3,36,0.00,,---,0.04,VWS V14.01,2013-07-11 19:02:00,
2013-07-11 15:04:00,87.4,57.2,29.97,SSW,206,7.6,8.3,36,0.00,,---,0.04,VWS V14.01,2013-07-11 19:04:00,
2013-07-11 15:06:00,87.4,57.2,29.97,SSW,206,7.6,7.6,36,0.00,,---,0.04,VWS V14.01,2013-07-11 19:06:00,
2013-07-11 15:08:00,87.4,57.2,29.97,ESE,122,3.1,3.1,36,0.00,,---,0.04,VWS V14.01,2013-07-11 19:08:00,
2013-07-11 15:09:00,87.4,57.2,29.97,ESE,122,3.1,3.1,36,0.00,,---,0.04,VWS V14.01,2013-07-11 19:09:00,
2013-07-11 15:11:00,86.4,55.5,29.97,SSW,192,8.1,8.1,35,0.00,,---,0.04,VWS V14.01,2013-07-11 19:11:00,
2013-07-11 15:13:00,86.0,55.2,29.97,South,187,3.1,4.9,35,0.00,,---,0.04,VWS V14.01,2013-07-11 19:13:00,
2013-07-11 15:14:00,86.0,55.2,29.97,South,187,3.1,3.1,35,0.00,,---,0.04,VWS V14.01,2013-07-11 19:14:00,
2013-07-11 15:15:00,86.0,56.7,29.97,SSW,206,6.3,6.3,37,0.00,,---,0.04,VWS V14.01,2013-07-11 19:15:00,
2013-07-11 15:16:00,86.0,56.7,29.97,SE,132,5.8,5.8,37,0.00,,---,0.04,VWS V14.01,2013-07-11 19:16:00,
2013-07-11 15:18:00,86.0,56.7,29.97,SSE,165,4.0,4.0,37,0.00,,---,0.04,VWS V14.01,2013-07-11 19:18:00,
2013-07-11 15:19:00,86.5,57.2,29.97,WSW,239,4.0,4.0,37,0.00,,---,0.04,VWS V14.01,2013-07-11 19:19:00,
2013-07-11 15:20:00,86.5,57.2,29.97,WSW,239,4.0,4.0,37,0.00,,---,0.04,VWS V14.01,2013-07-11 19:20:00,
2013-07-11 15:21:00,86.5,57.2,29.97,WSW,239,4.0,4.0,37,0.00,,---,0.04,VWS V14.01,2013-07-11 19:21:00,
2013-07-11 15:23:00,86.5,56.4,29.97,SE,140,3.6,4.0,36,0.00,,---,0.04,VWS V14.01,2013-07-11 19:23:00,
2013-07-11 15:24:00,86.5,54.9,29.97,South,171,3.6,3.6,34,0.00,,---,0.04,VWS V14.01,2013-07-11 19:24:00,
2013-07-11 15:25:00,86.5,54.9,29.97,South,171,3.6,3.6,34,0.00,,---,0.04,VWS V14.01,2013-07-11 19:25:00,
2013-07-11 15:26:00,86.5,54.9,29.97,South,171,3.6,3.6,34,0.00,,---,0.04,VWS V14.01,2013-07-11 19:26:00,
2013-07-11 15:28:00,86.5,54.9,29.97,SE,138,8.3,8.3,34,0.00,,---,0.04,VWS V14.01,2013-07-11 19:28:00,
2013-07-11 15:29:00,86.5,54.9,29.97,SSW,208,5.8,5.8,34,0.00,,---,0.04,VWS V14.01,2013-07-11 19:29:00,
2013-07-11 15:30:00,86.5,54.9,29.97,SSW,208,5.8,5.8,34,0.00,,---,0.04,VWS V14.01,2013-07-11 19:30:00,
2013-07-11 15:32:00,86.9,55.2,29.97,South,169,3.6,3.6,34,0.00,,---,0.04,VWS V14.01,2013-07-11 19:32:00,
2013-07-11 15:33:00,87.1,55.3,29.97,South,169,3.6,3.6,34,0.00,,---,0.04,VWS V14.01,2013-07-11 19:33:00,
2013-07-11 15:35:00,87.1,55.3,29.97,SSE,163,3.1,3.1,34,0.00,,---,0.04,VWS V14.01,2013-07-11 19:35:00,
2013-07-11 15:37:00,87.1,55.3,29.97,SE,145,3.6,3.6,34,0.00,,---,0.04,VWS V14.01,2013-07-11 19:37:00,
2013-07-11 15:38:00,87.1,55.3,29.97,SSE,161,4.9,4.9,34,0.00,,---,0.04,VWS V14.01,2013-07-11 19:38:00,
2013-07-11 15:40:00,87.1,55.3,29.97,South,169,17.0,17.0,34,0.00,,---,0.04,VWS V14.01,2013-07-11 19:40:00,
2013-07-11 15:41:00,87.6,55.0,29.97,South,169,17.0,17.0,33,0.00,,---,0.04,VWS V14.01,2013-07-11 19:41:00,
2013-07-11 15:42:00,87.6,55.0,29.97,South,169,17.0,17.0,33,0.00,,---,0.04,VWS V14.01,2013-07-11 19:42:00,
2013-07-11 15:44:00,87.6,54.2,29.97,South,191,3.6,3.6,32,0.00,,---,0.04,VWS V14.01,2013-07-11 19:44:00,
2013-07-11 15:45:00,87.6,54.2,29.97,WSW,248,8.3,8.3,32,0.00,,---,0.04,VWS V14.01,2013-07-11 19:45:00,
2013-07-11 15:46:00,87.1,54.5,29.97,WSW,248,8.3,8.3,33,0.00,,---,0.04,VWS V14.01,2013-07-11 19:46:00,
2013-07-11 15:47:00,87.1,54.5,29.97,SE,142,4.0,8.3,33,0.00,,---,0.04,VWS V14.01,2013-07-11 19:47:00,
2013-07-11 15:49:00,86.9,55.2,29.97,SSE,165,6.3,6.3,34,0.00,,---,0.04,VWS V14.01,2013-07-11 19:49:00,
2013-07-11 15:50:00,86.9,55.2,29.97,SSE,165,6.3,6.3,34,0.00,,---,0.04,VWS V14.01,2013-07-11 19:50:00,
2013-07-11 15:51:00,86.9,55.2,29.97,SSE,165,6.3,6.3,34,0.00,,---,0.04,VWS V14.01,2013-07-11 19:51:00,
2013-07-11 15:52:00,86.7,54.2,29.97,SSE,162,4.0,6.3,33,0.00,,---,0.04,VWS V14.01,2013-07-11 19:52:00,
2013-07-11 15:56:00,86.7,54.2,29.97,SSW,199,11.0,11.0,33,0.00,,---,0.04,VWS V14.01,2013-07-11 19:56:00,
2013-07-11 15:57:00,86.7,54.2,29.97,SSW,199,11.0,11.0,33,0.00,,---,0.04,VWS V14.01,2013-07-11 19:57:00,
2013-07-11 16:01:00,85.8,55.8,29.97,South,181,3.6,3.6,36,0.00,,---,0.04,VWS V14.01,2013-07-11 20:01:00,
2013-07-11 16:02:00,85.8,55.8,29.97,SSE,153,3.6,3.6,36,0.00,,---,0.04,VWS V14.01,2013-07-11 20:02:00,
2013-07-11 16:03:00,85.8,55.8,29.97,SSW,202,4.9,4.9,36,0.00,,---,0.04,VWS V14.01,2013-07-11 20:03:00,
2013-07-11 16:06:00,85.8,55.8,29.97,SE,137,4.9,7.6,36,0.00,,---,0.04,VWS V14.01,2013-07-11 20:06:00,
2013-07-11 16:07:00,85.8,55.8,29.97,South,172,5.8,5.8,36,0.00,,---,0.04,VWS V14.01,2013-07-11 20:07:00,
2013-07-11 16:08:00,85.8,55.8,29.97,South,177,4.5,5.8,36,0.00,,---,0.04,VWS V14.01,2013-07-11 20:08:00,
2013-07-11 16:11:00,86.2,56.1,29.97,South,187,3.1,3.1,36,0.00,,---,0.04,VWS V14.01,2013-07-11 20:11:00,
2013-07-11 16:12:00,86.2,56.1,29.97,South,187,3.1,3.1,36,0.00,,---,0.04,VWS V14.01,2013-07-11 20:12:00,
2013-07-11 16:13:00,86.2,56.1,29.97,SSW,204,5.4,5.4,36,0.00,,---,0.04,VWS V14.01,2013-07-11 20:13:00,
2013-07-11 16:16:00,86.4,55.5,29.97,SSE,164,7.6,7.6,35,0.00,,---,0.04,VWS V14.01,2013-07-11 20:16:00,
2013-07-11 16:18:00,86.4,56.3,29.97,SSW,192,5.4,7.6,36,0.00,,---,0.04,VWS V14.01,2013-07-11 20:18:00,
2013-07-11 16:22:00,86.2,56.1,29.97,SSE,167,5.4,5.4,36,0.00,,---,0.04,VWS V14.01,2013-07-11 20:22:00,
2013-07-11 16:23:00,86.2,56.1,29.97,SSE,167,5.4,5.4,36,0.00,,---,0.04,VWS V14.01,2013-07-11 20:23:00,
2013-07-11 16:27:00,86.2,56.1,29.97,SSE,158,6.3,10.1,36,0.00,,---,0.04,VWS V14.01,2013-07-11 20:27:00,
2013-07-11 16:28:00,86.2,56.1,29.97,SSE,158,6.3,6.3,36,0.00,,---,0.04,VWS V14.01,2013-07-11 20:28:00,
2013-07-11 16:32:00,85.5,56.2,29.97,ENE,76,2.7,2.7,37,0.00,,---,0.04,VWS V14.01,2013-07-11 20:32:00,
2013-07-11 16:33:00,85.5,57.0,29.97,ENE,76,2.7,2.7,38,0.00,,---,0.04,VWS V14.01,2013-07-11 20:33:00,
2013-07-11 16:34:00,85.5,57.0,29.97,SSW,205,4.0,4.0,38,0.00,,---,0.04,VWS V14.01,2013-07-11 20:34:00,
2013-07-11 16:37:00,85.5,57.0,29.97,South,180,8.7,8.7,38,0.00,,---,0.04,VWS V14.01,2013-07-11 20:37:00,
2013-07-11 16:38:00,85.3,56.8,29.97,SSW,195,6.3,6.3,38,0.00,,---,0.04,VWS V14.01,2013-07-11 20:38:00,
2013-07-11 16:39:00,85.3,56.8,29.97,SSW,195,6.3,6.3,38,0.00,,---,0.04,VWS V14.01,2013-07-11 20:39:00,
2013-07-11 16:43:00,85.6,55.7,29.97,ESE,120,4.9,8.1,36,0.00,,---,0.04,VWS V14.01,2013-07-11 20:43:00,
2013-07-11 16:44:00,85.5,54.7,29.97,SSE,161,6.3,6.3,35,0.00,,---,0.04,VWS V14.01,2013-07-11 20:44:00,
2013-07-11 16:45:00,85.5,54.7,29.97,SE,125,8.3,8.3,35,0.00,,---,0.04,VWS V14.01,2013-07-11 20:45:00,
2013-07-11 16:48:00,85.5,55.5,29.97,ESE,102,2.7,12.3,36,0.00,,---,0.04,VWS V14.01,2013-07-11 20:48:00,
2013-07-11 16:49:00,85.5,55.5,29.97,ESE,102,2.7,2.7,36,0.00,,---,0.04,VWS V14.01,2013-07-11 20:49:00,
2013-07-11 16:50:00,85.5,55.5,29.97,ESE,102,2.7,2.7,36,0.00,,---,0.04,VWS V14.01,2013-07-11 20:50:00,
2013-07-11 16:53:00,85.6,55.7,29.97,SSE,162,3.6,3.6,36,0.00,,---,0.04,VWS V14.01,2013-07-11 20:53:00,
2013-07-11 16:55:00,85.6,55.7,29.97,SE,146,8.3,8.3,36,0.00,,---,0.04,VWS V14.01,2013-07-11 20:55:00,
2013-07-11 16:59:00,86.2,56.1,29.97,SSW,201,4.0,4.0,36,0.00,,---,0.04,VWS V14.01,2013-07-11 20:59:00,
2013-07-11 17:00:00,86.4,56.3,29.97,SSW,201,4.0,4.0,36,0.00,,---,0.04,VWS V14.01,2013-07-11 21:00:00,
2013-07-11 17:01:00,86.4,56.3,29.97,SSW,201,4.0,4.0,36,0.00,,---,0.04,VWS V14.01,2013-07-11 21:01:00,
2013-07-11 17:04:00,86.4,56.3,29.97,South,186,4.0,4.0,36,0.00,,---,0.04,VWS V14.01,2013-07-11 21:04:00,
2013-07-11 17:05:00,86.4,56.3,29.97,South,186,4.0,4.0,36,0.00,,---,0.04,VWS V14.01,2013-07-11 21:05:00,
2013-07-11 17:06:00,86.4,56.3,29.97,SSW,205,4.0,4.0,36,0.00,,---,0.04,VWS V14.01,2013-07-11 21:06:00,
2013-07-11 17:09:00,86.2,55.3,29.97,South,185,2.7,2.7,35,0.00,,---,0.04,VWS V14.01,2013-07-11 21:09:00,
2013-07-11 17:10:00,85.6,55.7,29.97,SSW,200,4.0,4.0,36,0.00,,---,0.04,VWS V14.01,2013-07-11 21:10:00,
2013-07-11 17:12:00,85.6,55.7,29.97,South,190,3.6,4.0,36,0.00,,---,0.04,VWS V14.01,2013-07-11 21:12:00,
2013-07-11 17:14:00,85.6,55.7,29.97,South,172,8.3,8.3,36,0.00,,---,0.04,VWS V14.01,2013-07-11 21:14:00,
2013-07-11 17:15:00,84.7,56.3,29.97,SW,227,4.0,4.0,38,0.00,,---,0.04,VWS V14.01,2013-07-11 21:15:00,
2013-07-11 17:16:00,84.7,56.3,29.97,SSW,202,7.6,7.6,38,0.00,,---,0.04,VWS V14.01,2013-07-11 21:16:00,
2013-07-11 17:17:00,84.6,56.9,29.97,SSW,202,7.6,7.6,39,0.00,,---,0.04,VWS V14.01,2013-07-11 21:17:00,
2013-07-11 17:20:00,84.6,56.9,29.97,SSW,202,7.6,7.6,39,0.00,,---,0.04,VWS V14.01,2013-07-11 21:20:00,
2013-07-11 17:21:00,84.7,57.1,29.97,West,266,6.3,6.3,39,0.00,,---,0.04,VWS V14.01,2013-07-11 21:21:00,
2013-07-11 17:22:00,84.6,56.9,29.97,SW,232,7.6,7.6,39,0.00,,---,0.04,VWS V14.01,2013-07-11 21:22:00,
2013-07-11 17:25:00,84.6,56.9,29.97,WSW,247,4.0,4.0,39,0.00,,---,0.04,VWS V14.01,2013-07-11 21:25:00,
2013-07-11 17:26:00,84.6,56.9,29.97,WSW,243,3.1,4.0,39,0.00,,---,0.04,VWS V14.01,2013-07-11 21:26:00,
2013-07-11 17:27:00,84.6,56.9,29.94,WSW,243,3.1,3.1,39,0.00,,---,0.04,VWS V14.01,2013-07-11 21:27:00,
2013-07-11 17:28:00,84.6,56.9,29.94,WSW,243,3.1,3.1,39,0.00,,---,0.04,VWS V14.01,2013-07-11 21:28:00,
2013-07-11 17:31:00,84.6,56.9,29.94,WSW,255,4.0,4.0,39,0.00,,---,0.04,VWS V14.01,2013-07-11 21:31:00,
2013-07-11 17:32:00,84.6,56.9,29.94,WSW,255,4.0,4.0,39,0.00,,---,0.04,VWS V14.01,2013-07-11 21:32:00,
2013-07-11 17:33:00,84.6,56.9,29.94,South,182,4.0,4.0,39,0.00,,---,0.04,VWS V14.01,2013-07-11 21:33:00,
2013-07-11 17:36:00,84.2,56.6,29.94,SSW,200,3.1,3.1,39,0.00,,---,0.04,VWS V14.01,2013-07-11 21:36:00,
2013-07-11 17:37:00,84.2,56.6,29.94,SSW,210,3.6,3.6,39,0.00,,---,0.04,VWS V14.01,2013-07-11 21:37:00,
2013-07-11 17:38:00,84.4,56.7,29.94,SSW,210,3.6,3.6,39,0.00,,---,0.04,VWS V14.01,2013-07-11 21:38:00,
2013-07-11 17:41:00,84.4,56.0,29.94,WNW,286,3.1,3.1,38,0.00,,---,0.04,VWS V14.01,2013-07-11 21:41:00,
2013-07-11 17:42:00,84.4,56.0,29.94,SE,144,3.6,3.6,38,0.00,,---,0.04,VWS V14.01,2013-07-11 21:42:00,
2013-07-11 17:43:00,84.4,56.0,29.94,SE,144,3.6,3.6,38,0.00,,---,0.04,VWS V14.01,2013-07-11 21:43:00,
2013-07-11 17:47:00,84.2,56.6,29.94,South,183,3.1,7.6,39,0.00,,---,0.04,VWS V14.01,2013-07-11 21:47:00,
2013-07-11 17:48:00,84.2,56.6,29.94,South,183,3.1,3.1,39,0.00,,---,0.04,VWS V14.01,2013-07-11 21:48:00,
2013-07-11 17:52:00,83.8,57.0,29.94,SSW,202,0.0,0.0,40,0.00,,---,0.04,VWS V14.01,2013-07-11 21:52:00,
2013-07-11 17:53:00,83.8,57.0,29.94,SSW,202,0.0,0.0,40,0.00,,---,0.04,VWS V14.01,2013-07-11 21:53:00,
2013-07-11 17:57:00,83.8,57.0,29.94,SW,222,4.9,4.9,40,0.00,,---,0.04,VWS V14.01,2013-07-11 21:57:00,
2013-07-11 17:58:00,83.8,57.0,29.94,SSE,164,8.7,8.7,40,0.00,,---,0.04,VWS V14.01,2013-07-11 21:58:00,
2013-07-11 18:03:00,83.5,56.6,29.94,SE,140,8.1,8.1,40,0.00,,---,0.04,VWS V14.01,2013-07-11 22:03:00,
2013-07-11 18:04:00,83.5,56.6,29.94,SE,140,8.1,8.1,40,0.00,,---,0.04,VWS V14.01,2013-07-11 22:04:00,
2013-07-11 18:08:00,83.3,56.5,29.94,SSE,160,10.5,10.5,40,0.00,,---,0.04,VWS V14.01,2013-07-11 22:08:00,
2013-07-11 18:09:00,83.3,56.5,29.94,SE,129,0.0,10.5,40,0.00,,---,0.04,VWS V14.01,2013-07-11 22:09:00,
2013-07-11 18:13:00,83.1,55.6,29.94,South,171,4.9,4.9,39,0.00,,---,0.04,VWS V14.01,2013-07-11 22:13:00,
2013-07-11 18:14:00,83.1,55.6,29.94,South,171,4.9,4.9,39,0.00,,---,0.04,VWS V14.01,2013-07-11 22:14:00,
2013-07-11 18:18:00,82.9,56.2,29.94,WSW,249,3.6,5.8,40,0.00,,---,0.04,VWS V14.01,2013-07-11 22:18:00,
2013-07-11 18:19:00,82.9,56.2,29.94,South,189,6.3,6.3,40,0.00,,---,0.04,VWS V14.01,2013-07-11 22:19:00,
2013-07-11 18:23:00,82.8,56.0,29.94,South,189,6.3,6.3,40,0.00,,---,0.04,VWS V14.01,2013-07-11 22:23:00,
2013-07-11 18:24:00,82.8,56.0,29.94,South,180,6.3,6.3,40,0.00,,---,0.04,VWS V14.01,2013-07-11 22:24:00,
2013-07-11 18:25:00,82.8,56.0,29.94,South,180,6.3,6.3,40,0.00,,---,0.04,VWS V14.01,2013-07-11 22:25:00,
2013-07-11 18:28:00,82.6,55.8,29.94,SSW,198,6.7,6.7,40,0.00,,---,0.04,VWS V14.01,2013-07-11 22:28:00,
2013-07-11 18:30:00,82.4,55.7,29.94,SSW,200,3.1,8.1,40,0.00,,---,0.04,VWS V14.01,2013-07-11 22:30:00,
2013-07-11 18:31:00,82.4,55.7,29.94,SSW,200,3.1,3.1,40,0.00,,---,0.04,VWS V14.01,2013-07-11 22:31:00,
2013-07-11 18:33:00,82.2,56.2,29.94,SSE,163,2.7,2.7,41,0.00,,---,0.04,VWS V14.01,2013-07-11 22:33:00,
2013-07-11 18:35:00,82.0,56.0,29.94,SSE,163,2.7,2.7,41,0.00,,---,0.04,VWS V14.01,2013-07-11 22:35:00,
2013-07-11 18:36:00,82.0,56.0,29.94,SE,127,4.9,4.9,41,0.00,,---,0.04,VWS V14.01,2013-07-11 22:36:00,
2013-07-11 18:38:00,81.9,55.9,29.94,SE,127,4.9,4.9,41,0.00,,---,0.04,VWS V14.01,2013-07-11 22:38:00,
2013-07-11 18:40:00,81.9,55.9,29.94,SSW,195,4.0,4.0,41,0.00,,---,0.04,VWS V14.01,2013-07-11 22:40:00,
2013-07-11 18:41:00,81.3,56.1,29.94,SSW,195,4.0,4.0,42,0.00,,---,0.04,VWS V14.01,2013-07-11 22:41:00,
2013-07-11 18:43:00,81.3,56.1,29.94,South,176,4.0,4.9,42,0.00,,---,0.04,VWS V14.01,2013-07-11 22:43:00,
2013-07-11 18:45:00,81.3,56.1,29.94,South,176,4.0,4.0,42,0.00,,---,0.04,VWS V14.01,2013-07-11 22:45:00,
2013-07-11 18:47:00,81.0,56.4,29.94,South,190,2.7,5.8,43,0.00,,---,0.04,VWS V14.01,2013-07-11 22:47:00,
2013-07-11 18:49:00,81.0,56.4,29.94,SE,131,3.6,3.6,43,0.00,,---,0.04,VWS V14.01,2013-07-11 22:49:00,
2013-07-11 18:50:00,80.8,56.9,29.94,SE,131,3.6,3.6,44,0.00,,---,0.04,VWS V14.01,2013-07-11 22:50:00,
2013-07-11 18:52:00,80.8,56.9,29.94,South,186,2.7,2.7,44,0.00,,---,0.04,VWS V14.01,2013-07-11 22:52:00,
2013-07-11 18:54:00,80.8,56.9,29.94,SW,228,3.6,3.6,44,0.00,,---,0.04,VWS V14.01,2013-07-11 22:54:00,
2013-07-11 18:55:00,80.8,56.9,29.94,SE,145,5.4,5.4,44,0.00,,---,0.04,VWS V14.01,2013-07-11 22:55:00,
2013-07-11 18:57:00,80.8,56.9,29.94,SSW,192,3.6,3.6,44,0.00,,---,0.04,VWS V14.01,2013-07-11 22:57:00,
2013-07-11 18:58:00,80.8,56.9,29.94,SSW,192,3.6,3.6,44,0.00,,---,0.04,VWS V14.01,2013-07-11 22:58:00,
2013-07-11 18:59:00,80.8,56.9,29.94,SSW,192,3.6,3.6,44,0.00,,---,0.04,VWS V14.01,2013-07-11 22:59:00,
2013-07-11 19:00:00,80.8,56.9,29.97,SW,224,5.4,5.4,44,0.00,,---,0.04,VWS V14.01,2013-07-11 23:00:00,
2013-07-11 19:02:00,80.8,56.9,29.97,South,173,5.4,5.4,44,0.00,,---,0.04,VWS V14.01,2013-07-11 23:02:00,
2013-07-11 19:03:00,80.8,56.9,29.97,South,173,5.4,5.4,44,0.00,,---,0.04,VWS V14.01,2013-07-11 23:03:00,
2013-07-11 19:05:00,80.6,57.9,29.97,South,171,3.6,3.6,46,0.00,,---,0.04,VWS V14.01,2013-07-11 23:05:00,
2013-07-11 19:06:00,80.6,57.9,29.97,South,171,3.6,3.6,46,0.00,,---,0.04,VWS V14.01,2013-07-11 23:06:00,
2013-07-11 19:07:00,80.6,57.9,29.97,South,171,3.6,3.6,46,0.00,,---,0.04,VWS V14.01,2013-07-11 23:07:00,
2013-07-11 19:08:00,80.6,57.9,29.97,SSW,212,3.6,3.6,46,0.00,,---,0.04,VWS V14.01,2013-07-11 23:08:00,
2013-07-11 19:10:00,80.6,57.9,29.97,SSW,193,3.1,4.0,46,0.00,,---,0.04,VWS V14.01,2013-07-11 23:10:00,
2013-07-11 19:11:00,80.4,58.4,29.97,SSW,193,3.1,3.1,47,0.00,,---,0.04,VWS V14.01,2013-07-11 23:11:00,
2013-07-11 19:13:00,80.4,58.4,29.97,SSE,158,2.7,2.7,47,0.00,,---,0.04,VWS V14.01,2013-07-11 23:13:00,
2013-07-11 19:15:00,80.4,58.4,29.97,South,177,6.3,6.3,47,0.00,,---,0.04,VWS V14.01,2013-07-11 23:15:00,
2013-07-11 19:16:00,80.4,58.4,29.97,South,177,6.3,6.3,47,0.00,,---,0.04,VWS V14.01,2013-07-11 23:16:00,
2013-07-11 19:18:00,80.4,58.4,29.97,SE,142,8.7,8.7,47,0.00,,---,0.04,VWS V14.01,2013-07-11 23:18:00,
2013-07-11 19:20:00,80.4,58.4,29.97,South,183,4.0,4.0,47,0.00,,---,0.04,VWS V14.01,2013-07-11 23:20:00,
2013-07-11 19:21:00,80.4,58.4,29.97,South,183,4.0,4.0,47,0.00,,---,0.04,VWS V14.01,2013-07-11 23:21:00,
2013-07-11 19:23:00,80.2,58.8,29.97,ESE,110,2.7,2.7,48,0.00,,---,0.04,VWS V14.01,2013-07-11 23:23:00,
2013-07-11 19:25:00,80.2,59.4,29.97,South,172,4.9,4.9,49,0.00,,---,0.04,VWS V14.01,2013-07-11 23:25:00,
2013-07-11 19:27:00,80.2,59.4,29.97,South,172,4.9,4.9,49,0.00,,---,0.04,VWS V14.01,2013-07-11 23:27:00,
2013-07-11 19:28:00,80.2,59.4,29.97,South,169,6.7,6.7,49,0.00,,---,0.04,VWS V14.01,2013-07-11 23:28:00,
2013-07-11 19:29:00,80.2,59.4,29.97,South,181,4.0,6.7,49,0.00,,---,0.04,VWS V14.01,2013-07-11 23:29:00,
2013-07-11 19:30:00,80.2,59.4,29.97,SW,224,2.7,4.0,49,0.00,,---,0.04,VWS V14.01,2013-07-11 23:30:00,
2013-07-11 19:32:00,80.2,59.4,29.97,SSW,207,2.7,2.7,49,0.00,,---,0.04,VWS V14.01,2013-07-11 23:32:00,
2013-07-11 19:33:00,80.1,59.8,29.97,SSW,207,2.7,2.7,50,0.00,,---,0.04,VWS V14.01,2013-07-11 23:33:00,
2013-07-11 19:34:00,80.1,59.8,29.97,SSW,207,2.7,2.7,50,0.00,,---,0.04,VWS V14.01,2013-07-11 23:34:00,
2013-07-11 19:35:00,80.1,59.8,29.97,South,169,5.8,5.8,50,0.00,,---,0.04,VWS V14.01,2013-07-11 23:35:00,
2013-07-11 19:37:00,80.1,59.8,29.97,SW,215,2.2,6.3,50,0.00,,---,0.04,VWS V14.01,2013-07-11 23:37:00,
2013-07-11 19:39:00,80.1,59.8,29.97,SSE,167,4.9,4.9,50,0.00,,---,0.04,VWS V14.01,2013-07-11 23:39:00,
2013-07-11 19:40:00,80.1,59.8,29.97,South,189,3.6,3.6,50,0.00,,---,0.04,VWS V14.01,2013-07-11 23:40:00,
2013-07-11 19:42:00,80.1,60.3,29.97,South,189,3.6,3.6,51,0.00,,---,0.04,VWS V14.01,2013-07-11 23:42:00,
2013-07-11 19:44:00,80.1,60.3,29.97,SSW,198,2.7,2.7,51,0.00,,---,0.04,VWS V14.01,2013-07-11 23:44:00,
2013-07-11 19:45:00,80.1,60.3,29.97,SSW,198,2.7,2.7,51,0.00,,---,0.04,VWS V14.01,2013-07-11 23:45:00,
2013-07-11 19:46:00,80.1,60.3,29.97,South,182,4.9,4.9,51,0.00,,---,0.04,VWS V14.01,2013-07-11 23:46:00,
2013-07-11 19:47:00,80.1,60.3,29.97,South,182,4.9,4.9,51,0.00,,---,0.04,VWS V14.01,2013-07-11 23:47:00,
2013-07-11 19:49:00,80.1,60.3,29.97,SSW,201,3.6,7.6,51,0.00,,---,0.04,VWS V14.01,2013-07-11 23:49:00,
2013-07-11 19:50:00,79.9,60.7,29.97,SW,231,3.1,3.6,52,0.00,,---,0.04,VWS V14.01,2013-07-11 23:50:00,
2013-07-11 19:52:00,79.9,60.7,29.97,South,175,5.4,5.4,52,0.00,,---,0.04,VWS V14.01,2013-07-11 23:52:00,
2013-07-11 19:54:00,79.9,60.7,29.97,South,175,5.4,5.4,52,0.00,,---,0.04,VWS V14.01,2013-07-11 23:54:00,
2013-07-11 19:55:00,79.9,60.7,29.97,SSW,200,3.1,3.1,52,0.00,,---,0.04,VWS V14.01,2013-07-11 23:55:00,
2013-07-11 19:57:00,79.9,60.7,29.97,South,169,4.0,4.0,52,0.00,,---,0.04,VWS V14.01,2013-07-11 23:57:00,
2013-07-11 19:59:00,79.9,61.2,29.97,SE,124,3.1,4.0,53,0.00,,---,0.04,VWS V14.01,2013-07-11 23:59:00,
2013-07-11 20:00:00,79.9,61.8,29.97,SE,124,3.1,3.1,54,0.00,,---,0.04,VWS V14.01,2013-07-12 00:00:00,
2013-07-11 20:02:00,79.9,61.8,29.97,South,175,5.4,5.4,54,0.00,,---,0.04,VWS V14.01,2013-07-12 00:02:00,
2013-07-11 20:04:00,79.9,61.8,29.97,SSE,161,2.7,2.7,54,0.00,,---,0.04,VWS V14.01,2013-07-12 00:04:00,
2013-07-11 20:06:00,79.9,61.8,29.97,SW,218,4.0,4.0,54,0.00,,---,0.04,VWS V14.01,2013-07-12 00:06:00,
2013-07-11 20:07:00,79.9,61.8,29.97,SSW,198,4.0,4.0,54,0.00,,---,0.04,VWS V14.01,2013-07-12 00:07:00,
2013-07-11 20:09:00,79.9,61.8,29.97,SSW,193,0.0,0.0,54,0.00,,---,0.04,VWS V14.01,2013-07-12 00:09:00,
2013-07-11 20:11:00,79.7,61.6,29.97,South,181,0.0,0.0,54,0.00,,---,0.04,VWS V14.01,2013-07-12 00:11:00,
2013-07-11 20:12:00,79.7,61.6,29.97,South,171,2.7,2.7,54,0.00,,---,0.04,VWS V14.01,2013-07-12 00:12:00,
2013-07-11 20:13:00,79.7,61.6,29.97,South,171,2.7,2.7,54,0.00,,---,0.04,VWS V14.01,2013-07-12 00:13:00,
2013-07-11 20:15:00,79.7,61.6,29.97,SE,144,3.1,3.1,54,0.00,,---,0.04,VWS V14.01,2013-07-12 00:15:00,
2013-07-11 20:17:00,79.7,61.6,29.97,SSE,162,3.6,4.9,54,0.00,,---,0.04,VWS V14.01,2013-07-12 00:17:00,
2013-07-11 20:18:00,79.5,62.0,29.97,SSE,162,3.6,3.6,55,0.00,,---,0.04,VWS V14.01,2013-07-12 00:18:00,
2013-07-11 20:20:00,79.5,62.0,29.97,SSE,153,4.0,4.0,55,0.00,,---,0.04,VWS V14.01,2013-07-12 00:20:00,
2013-07-11 20:22:00,79.5,62.0,29.97,South,185,4.9,4.9,55,0.00,,---,0.04,VWS V14.01,2013-07-12 00:22:00,
2013-07-11 20:23:00,79.5,62.0,29.97,South,185,4.9,4.9,55,0.00,,---,0.04,VWS V14.01,2013-07-12 00:23:00,
2013-07-11 20:25:00,79.5,62.0,29.97,SSE,168,5.8,5.8,55,0.00,,---,0.04,VWS V14.01,2013-07-12 00:25:00,
2013-07-11 20:27:00,79.5,62.0,29.97,SE,139,6.3,6.3,55,0.00,,---,0.04,VWS V14.01,2013-07-12 00:27:00,
2013-07-11 20:28:00,79.5,62.0,29.97,SSE,158,5.4,5.4,55,0.00,,---,0.04,VWS V14.01,2013-07-12 00:28:00,
2013-07-11 20:30:00,79.5,62.0,29.97,South,187,4.9,4.9,55,0.00,,---,0.04,VWS V14.01,2013-07-12 00:30:00,
2013-07-11 20:32:00,79.5,62.5,29.97,SSE,167,2.2,2.2,56,0.00,,---,0.04,VWS V14.01,2013-07-12 00:32:00,
2013-07-11 20:33:00,79.5,62.5,29.97,SSE,167,2.2,2.2,56,0.00,,---,0.04,VWS V14.01,2013-07-12 00:33:00,
2013-07-11 20:36:00,79.3,62.3,29.97,WSW,246,2.7,2.7,56,0.00,,---,0.04,VWS V14.01,2013-07-12 00:36:00,
2013-07-11 20:37:00,79.3,62.3,29.97,WSW,246,2.7,2.7,56,0.00,,---,0.04,VWS V14.01,2013-07-12 00:37:00,
2013-07-11 20:39:00,79.3,62.3,29.97,SSE,158,2.7,2.7,56,0.00,,---,0.04,VWS V14.01,2013-07-12 00:39:00,
2013-07-11 20:40:00,79.3,62.3,29.97,South,177,2.7,2.7,56,0.00,,---,0.04,VWS V14.01,2013-07-12 00:40:00,
2013-07-11 20:41:00,79.3,62.3,29.97,SSE,166,5.8,5.8,56,0.00,,---,0.04,VWS V14.01,2013-07-12 00:41:00,
2013-07-11 20:42:00,79.3,62.3,29.97,SSE,166,5.8,5.8,56,0.00,,---,0.04,VWS V14.01,2013-07-12 00:42:00,
2013-07-11 20:44:00,79.2,62.1,29.97,South,180,4.9,4.9,56,0.00,,---,0.04,VWS V14.01,2013-07-12 00:44:00,
2013-07-11 20:45:00,79.2,62.1,29.97,South,180,4.9,4.9,56,0.00,,---,0.04,VWS V14.01,2013-07-12 00:45:00,
2013-07-11 20:46:00,79.2,62.1,29.97,SE,135,7.2,7.2,56,0.00,,---,0.04,VWS V14.01,2013-07-12 00:46:00,
2013-07-11 20:47:00,79.2,62.1,29.97,SE,135,7.2,7.2,56,0.00,,---,0.04,VWS V14.01,2013-07-12 00:47:00,
2013-07-11 20:49:00,79.2,62.1,29.97,SE,135,7.2,7.2,56,0.00,,---,0.04,VWS V14.01,2013-07-12 00:49:00,
2013-07-11 20:50:00,79.2,62.1,29.97,SE,135,7.2,7.2,56,0.00,,---,0.04,VWS V14.01,2013-07-12 00:50:00,
2013-07-11 20:51:00,79.2,62.1,29.97,SE,135,7.2,7.2,56,0.00,,---,0.04,VWS V14.01,2013-07-12 00:51:00,
2013-07-11 20:52:00,79.2,62.1,29.97,ESE,118,5.4,5.4,56,0.00,,---,0.04,VWS V14.01,2013-07-12 00:52:00,
2013-07-11 20:55:00,79.2,62.1,29.97,South,173,2.7,2.7,56,0.00,,---,0.04,VWS V14.01,2013-07-12 00:55:00,
2013-07-11 20:57:00,79.2,62.1,29.97,SW,223,2.7,2.7,56,0.00,,---,0.04,VWS V14.01,2013-07-12 00:57:00,
2013-07-11 20:58:00,79.2,62.1,29.97,SW,223,2.7,2.7,56,0.00,,---,0.04,VWS V14.01,2013-07-12 00:58:00,
2013-07-11 21:00:00,79.2,62.1,29.97,SSW,205,6.3,6.3,56,0.00,,---,0.04,VWS V14.01,2013-07-12 01:00:00,
2013-07-11 21:02:00,79.2,62.1,29.97,SSE,167,4.0,4.0,56,0.00,,---,0.04,VWS V14.01,2013-07-12 01:02:00,
2013-07-11 21:03:00,79.2,62.1,29.97,SSE,167,4.0,4.0,56,0.00,,---,0.04,VWS V14.01,2013-07-12 01:03:00,
2013-07-11 21:05:00,79.0,62.5,29.97,SSE,167,4.0,4.0,57,0.00,,---,0.04,VWS V14.01,2013-07-12 01:05:00,
2013-07-11 21:08:00,78.8,62.3,29.97,South,187,2.2,2.2,57,0.00,,---,0.04,VWS V14.01,2013-07-12 01:08:00,
2013-07-11 21:10:00,78.8,62.3,29.97,South,187,2.2,2.2,57,0.00,,---,0.04,VWS V14.01,2013-07-12 01:10:00,
2013-07-11 21:13:00,78.8,62.3,29.97,South,187,2.2,2.2,57,0.00,,---,0.04,VWS V14.01,2013-07-12 01:13:00,
2013-07-11 21:15:00,78.8,62.3,29.97,South,186,6.3,6.3,57,0.00,,---,0.04,VWS V14.01,2013-07-12 01:15:00,
2013-07-11 21:16:00,78.8,62.3,29.97,South,186,6.3,6.3,57,0.00,,---,0.04,VWS V14.01,2013-07-12 01:16:00,
2013-07-11 21:19:00,78.8,62.3,29.97,South,186,6.3,6.3,57,0.00,,---,0.04,VWS V14.01,2013-07-12 01:19:00,
2013-07-11 21:21:00,78.8,62.3,29.97,South,189,3.1,6.3,57,0.00,,---,0.04,VWS V14.01,2013-07-12 01:21:00,
2013-07-11 21:24:00,78.8,62.3,29.97,South,183,4.0,4.0,57,0.00,,---,0.04,VWS V14.01,2013-07-12 01:24:00,
2013-07-11 21:26:00,78.8,62.3,29.97,South,182,0.0,0.0,57,0.00,,---,0.04,VWS V14.01,2013-07-12 01:26:00,
2013-07-11 21:29:00,78.8,62.3,29.97,South,178,3.1,3.1,57,0.00,,---,0.04,VWS V14.01,2013-07-12 01:29:00,
2013-07-11 21:30:00,78.8,62.3,29.97,South,171,4.9,4.9,57,0.00,,---,0.04,VWS V14.01,2013-07-12 01:30:00,
2013-07-11 21:31:00,78.8,62.3,29.97,South,174,4.9,4.9,57,0.00,,---,0.04,VWS V14.01,2013-07-12 01:31:00,
2013-07-11 21:34:00,78.8,62.3,29.97,South,171,4.0,4.0,57,0.00,,---,0.04,VWS V14.01,2013-07-12 01:34:00,
2013-07-11 21:36:00,78.8,62.3,29.97,SE,145,3.1,3.1,57,0.00,,---,0.04,VWS V14.01,2013-07-12 01:36:00,
2013-07-11 21:37:00,78.8,62.3,29.97,SE,145,3.1,3.1,57,0.00,,---,0.04,VWS V14.01,2013-07-12 01:37:00,
2013-07-11 21:39:00,78.8,62.3,29.97,SSE,150,3.1,3.1,57,0.00,,---,0.04,VWS V14.01,2013-07-12 01:39:00,
2013-07-11 21:41:00,78.8,62.3,29.97,SSE,150,3.1,3.1,57,0.00,,---,0.04,VWS V14.01,2013-07-12 01:41:00,
2013-07-11 21:42:00,78.8,61.8,29.97,SSW,204,3.6,3.6,56,0.00,,---,0.04,VWS V14.01,2013-07-12 01:42:00,
2013-07-11 21:45:00,78.8,61.8,29.97,SW,235,2.7,2.7,56,0.00,,---,0.04,VWS V14.01,2013-07-12 01:45:00,
2013-07-11 21:46:00,78.6,62.1,29.97,SW,235,2.7,2.7,57,0.00,,---,0.04,VWS V14.01,2013-07-12 01:46:00,
2013-07-11 21:47:00,78.6,62.1,29.97,ESE,111,2.7,3.1,57,0.00,,---,0.04,VWS V14.01,2013-07-12 01:47:00,
2013-07-11 21:48:00,78.6,62.1,29.97,ESE,111,2.7,2.7,57,0.00,,---,0.04,VWS V14.01,2013-07-12 01:48:00,
2013-07-11 21:50:00,78.6,62.1,29.97,SE,140,2.7,2.7,57,0.00,,---,0.04,VWS V14.01,2013-07-12 01:50:00,
2013-07-11 21:51:00,78.6,62.1,29.97,SE,140,2.7,2.7,57,0.00,,---,0.04,VWS V14.01,2013-07-12 01:51:00,
2013-07-11 21:52:00,78.6,62.1,29.97,SE,140,2.7,2.7,57,0.00,,---,0.04,VWS V14.01,2013-07-12 01:52:00,
2013-07-11 21:53:00,78.6,62.1,29.97,SE,140,2.7,2.7,57,0.00,,---,0.04,VWS V14.01,2013-07-12 01:53:00,
2013-07-11 21:55:00,78.6,62.1,29.97,SE,140,2.7,2.7,57,0.00,,---,0.04,VWS V14.01,2013-07-12 01:55:00,
2013-07-11 21:56:00,78.6,62.1,29.97,SSE,161,8.7,8.7,57,0.00,,---,0.04,VWS V14.01,2013-07-12 01:56:00,
2013-07-11 21:57:00,78.8,61.8,29.97,South,181,2.7,2.7,56,0.00,,---,0.04,VWS V14.01,2013-07-12 01:57:00,
2013-07-11 21:59:00,78.8,61.8,29.97,South,170,3.6,3.6,56,0.00,,---,0.04,VWS V14.01,2013-07-12 01:59:00,
2013-07-11 22:00:00,78.8,61.8,29.97,South,174,3.1,3.1,56,0.00,,---,0.04,VWS V14.01,2013-07-12 02:00:00,
2013-07-11 22:02:00,78.8,61.3,29.97,South,174,3.1,3.1,55,0.00,,---,0.04,VWS V14.01,2013-07-12 02:02:00,
2013-07-11 22:03:00,78.8,61.3,29.97,South,173,6.3,6.3,55,0.00,,---,0.04,VWS V14.01,2013-07-12 02:03:00,
2013-07-11 22:04:00,78.8,61.3,29.97,South,173,6.3,6.3,55,0.00,,---,0.04,VWS V14.01,2013-07-12 02:04:00,
2013-07-11 22:06:00,78.8,61.3,29.97,SW,235,4.5,6.3,55,0.00,,---,0.04,VWS V14.01,2013-07-12 02:06:00,
2013-07-11 22:07:00,78.8,60.8,29.97,SW,235,4.5,4.5,54,0.00,,---,0.04,VWS V14.01,2013-07-12 02:07:00,
2013-07-11 22:08:00,78.8,60.8,29.97,SW,235,4.5,4.5,54,0.00,,---,0.04,VWS V14.01,2013-07-12 02:08:00,
2013-07-11 22:10:00,78.8,60.8,29.97,SSE,155,4.9,4.9,54,0.00,,---,0.04,VWS V14.01,2013-07-12 02:10:00,
2013-07-11 22:11:00,78.8,60.8,29.97,SE,131,2.2,4.9,54,0.00,,---,0.04,VWS V14.01,2013-07-12 02:11:00,
2013-07-11 22:12:00,78.8,60.8,29.97,SE,131,2.2,2.2,54,0.00,,---,0.04,VWS V14.01,2013-07-12 02:12:00,
2013-07-11 22:13:00,78.8,60.8,29.97,South,187,4.9,4.9,54,0.00,,---,0.04,VWS V14.01,2013-07-12 02:13:00,
2013-07-11 22:15:00,78.8,60.8,29.97,South,174,2.7,4.9,54,0.00,,---,0.04,VWS V14.01,2013-07-12 02:15:00,
2013-07-11 22:16:00,78.8,60.8,29.97,South,174,2.7,2.7,54,0.00,,---,0.04,VWS V14.01,2013-07-12 02:16:00,
2013-07-11 22:17:00,78.6,60.6,29.97,South,169,2.2,2.2,54,0.00,,---,0.04,VWS V14.01,2013-07-12 02:17:00,
2013-07-11 22:18:00,78.6,60.6,29.97,South,169,2.2,2.2,54,0.00,,---,0.04,VWS V14.01,2013-07-12 02:18:00,
2013-07-11 22:20:00,78.6,60.6,29.97,South,180,3.1,3.1,54,0.00,,---,0.04,VWS V14.01,2013-07-12 02:20:00,
2013-07-11 22:21:00,78.6,60.6,29.97,South,180,3.1,3.1,54,0.00,,---,0.04,VWS V14.01,2013-07-12 02:21:00,
2013-07-11 22:22:00,78.6,60.6,29.97,South,180,3.1,3.1,54,0.00,,---,0.04,VWS V14.01,2013-07-12 02:22:00,
2013-07-11 22:23:00,78.6,60.6,29.97,SE,141,3.1,3.1,54,0.00,,---,0.04,VWS V14.01,2013-07-12 02:23:00,
2013-07-11 22:25:00,78.6,61.1,29.97,SSE,168,4.0,4.0,55,0.00,,---,0.04,VWS V14.01,2013-07-12 02:25:00,
2013-07-11 22:26:00,78.6,61.1,29.97,SSE,168,4.0,4.0,55,0.00,,---,0.04,VWS V14.01,2013-07-12 02:26:00,
2013-07-11 22:27:00,78.6,61.1,29.97,SSE,168,4.0,4.0,55,0.00,,---,0.04,VWS V14.01,2013-07-12 02:27:00,
2013-07-11 22:28:00,78.6,61.1,29.97,SSE,168,4.0,4.0,55,0.00,,---,0.04,VWS V14.01,2013-07-12 02:28:00,
2013-07-11 22:30:00,78.6,61.1,29.97,SSE,168,4.0,4.0,55,0.00,,---,0.04,VWS V14.01,2013-07-12 02:30:00,
2013-07-11 22:31:00,78.6,61.1,29.97,South,183,0.0,0.0,55,0.00,,---,0.04,VWS V14.01,2013-07-12 02:31:00,
2013-07-11 22:32:00,78.6,61.1,29.97,South,183,0.0,0.0,55,0.00,,---,0.04,VWS V14.01,2013-07-12 02:32:00,
2013-07-11 22:33:00,78.6,61.6,29.97,SSE,151,2.7,2.7,56,0.00,,---,0.04,VWS V14.01,2013-07-12 02:33:00,
2013-07-11 22:36:00,78.6,61.6,29.97,SSE,151,2.7,2.7,56,0.00,,---,0.04,VWS V14.01,2013-07-12 02:36:00,
2013-07-11 22:37:00,78.6,61.6,29.97,SSW,194,2.7,2.7,56,0.00,,---,0.04,VWS V14.01,2013-07-12 02:37:00,
2013-07-11 22:39:00,78.6,61.6,29.97,SSE,164,0.0,4.0,56,0.00,,---,0.04,VWS V14.01,2013-07-12 02:39:00,
2013-07-11 22:41:00,78.6,61.6,29.97,SE,124,2.7,2.7,56,0.00,,---,0.04,VWS V14.01,2013-07-12 02:41:00,
2013-07-11 22:42:00,78.8,61.8,29.97,South,170,4.9,4.9,56,0.00,,---,0.04,VWS V14.01,2013-07-12 02:42:00,
2013-07-11 22:44:00,78.8,62.3,29.97,South,170,4.9,4.9,57,0.00,,---,0.04,VWS V14.01,2013-07-12 02:44:00,
2013-07-11 22:46:00,78.8,62.3,29.97,WSW,245,0.0,0.0,57,0.00,,---,0.04,VWS V14.01,2013-07-12 02:46:00,
2013-07-11 22:47:00,78.8,62.3,29.97,WSW,245,0.0,0.0,57,0.00,,---,0.04,VWS V14.01,2013-07-12 02:47:00,
2013-07-11 22:49:00,78.8,62.3,29.97,SSW,203,0.0,0.0,57,0.00,,---,0.04,VWS V14.01,2013-07-12 02:49:00,
2013-07-11 22:51:00,78.8,62.3,29.97,SSW,204,4.9,4.9,57,0.00,,---,0.04,VWS V14.01,2013-07-12 02:51:00,
2013-07-11 22:53:00,78.8,62.3,29.97,East,95,3.1,8.1,57,0.00,,---,0.04,VWS V14.01,2013-07-12 02:53:00,
2013-07-11 22:55:00,78.8,62.3,29.97,East,95,3.1,3.1,57,0.00,,---,0.04,VWS V14.01,2013-07-12 02:55:00,
2013-07-11 22:56:00,78.6,62.1,29.97,East,95,3.1,3.1,57,0.00,,---,0.04,VWS V14.01,2013-07-12 02:56:00,
2013-07-11 22:58:00,78.6,62.1,29.97,East,95,3.1,3.1,57,0.00,,---,0.04,VWS V14.01,2013-07-12 02:58:00,
2013-07-11 23:00:00,78.6,62.1,29.97,South,180,5.4,5.4,57,0.00,,---,0.04,VWS V14.01,2013-07-12 03:00:00,
2013-07-11 23:01:00,78.6,62.1,29.97,South,180,5.4,5.4,57,0.00,,---,0.04,VWS V14.01,2013-07-12 03:01:00,
2013-07-11 23:02:00,78.6,62.1,29.97,South,180,5.4,5.4,57,0.00,,---,0.04,VWS V14.01,2013-07-12 03:02:00,
2013-07-11 23:03:00,78.6,62.1,29.97,South,180,5.4,5.4,57,0.00,,---,0.04,VWS V14.01,2013-07-12 03:03:00,
2013-07-11 23:05:00,78.6,62.1,29.97,SW,224,2.7,2.7,57,0.00,,---,0.04,VWS V14.01,2013-07-12 03:05:00,
2013-07-11 23:07:00,78.6,62.1,29.97,South,185,8.1,8.1,57,0.00,,---,0.04,VWS V14.01,2013-07-12 03:07:00,
2013-07-11 23:08:00,78.6,62.1,29.97,South,185,8.1,8.1,57,0.00,,---,0.04,VWS V14.01,2013-07-12 03:08:00,
2013-07-11 23:11:00,78.6,62.1,29.97,South,182,6.3,6.3,57,0.00,,---,0.04,VWS V14.01,2013-07-12 03:11:00,
2013-07-11 23:12:00,78.6,62.1,29.97,South,182,6.3,6.3,57,0.00,,---,0.04,VWS V14.01,2013-07-12 03:12:00,
2013-07-11 23:14:00,78.6,62.1,29.97,SSW,204,4.0,4.0,57,0.00,,---,0.04,VWS V14.01,2013-07-12 03:14:00,
2013-07-11 23:16:00,78.6,62.1,29.97,SSW,205,2.2,2.2,57,0.00,,---,0.04,VWS V14.01,2013-07-12 03:16:00,
2013-07-11 23:17:00,78.6,62.6,29.97,SSE,150,5.4,5.4,58,0.00,,---,0.04,VWS V14.01,2013-07-12 03:17:00,
2013-07-11 23:18:00,78.6,62.6,29.97,SSE,150,5.4,5.4,58,0.00,,---,0.04,VWS V14.01,2013-07-12 03:18:00,
2013-07-11 23:19:00,78.4,62.5,29.97,SE,141,5.4,5.4,58,0.00,,---,0.04,VWS V14.01,2013-07-12 03:19:00,
2013-07-11 23:21:00,78.4,62.5,29.97,SSE,164,4.0,4.0,58,0.00,,---,0.04,VWS V14.01,2013-07-12 03:21:00,
2013-07-11 23:22:00,78.4,62.5,29.97,SSE,164,4.0,4.0,58,0.00,,---,0.04,VWS V14.01,2013-07-12 03:22:00,
2013-07-11 23:23:00,78.4,62.5,29.97,SSE,164,4.0,4.0,58,0.00,,---,0.04,VWS V14.01,2013-07-12 03:23:00,
2013-07-11 23:25:00,78.4,62.5,29.97,SSE,164,4.0,4.0,58,0.00,,---,0.04,VWS V14.01,2013-07-12 03:25:00,
2013-07-11 23:26:00,78.4,62.9,29.97,South,170,2.7,4.0,59,0.00,,---,0.04,VWS V14.01,2013-07-12 03:26:00,
2013-07-11 23:27:00,78.4,62.9,29.97,SSW,199,4.0,4.0,59,0.00,,---,0.04,VWS V14.01,2013-07-12 03:27:00,
2013-07-11 23:28:00,78.4,62.9,29.97,WSW,241,4.0,4.0,59,0.00,,---,0.04,VWS V14.01,2013-07-12 03:28:00,
2013-07-11 23:30:00,78.4,63.4,29.97,SSE,166,7.6,7.6,60,0.00,,---,0.04,VWS V14.01,2013-07-12 03:30:00,
2013-07-11 23:31:00,78.4,63.4,29.97,SSE,166,7.6,7.6,60,0.00,,---,0.04,VWS V14.01,2013-07-12 03:31:00,
2013-07-11 23:32:00,78.4,63.4,29.97,South,187,4.0,7.6,60,0.00,,---,0.04,VWS V14.01,2013-07-12 03:32:00,
2013-07-11 23:33:00,78.4,63.4,29.97,South,187,4.0,4.0,60,0.00,,---,0.04,VWS V14.01,2013-07-12 03:33:00,
2013-07-11 23:35:00,78.4,62.9,29.97,SW,226,2.7,2.7,59,0.00,,---,0.04,VWS V14.01,2013-07-12 03:35:00,
2013-07-11 23:36:00,78.4,62.9,29.97,SSE,147,4.0,4.0,59,0.00,,---,0.04,VWS V14.01,2013-07-12 03:36:00,
2013-07-11 23:37:00,78.4,62.9,29.97,South,173,3.1,3.1,59,0.00,,---,0.04,VWS V14.01,2013-07-12 03:37:00,
2013-07-11 23:38:00,78.4,62.9,29.97,SSE,168,0.0,3.1,59,0.00,,---,0.04,VWS V14.01,2013-07-12 03:38:00,
2013-07-11 23:41:00,78.4,62.9,29.97,SSW,205,4.0,4.0,59,0.00,,---,0.04,VWS V14.01,2013-07-12 03:41:00,
2013-07-11 23:42:00,78.4,62.9,29.97,SSW,205,4.0,4.0,59,0.00,,---,0.04,VWS V14.01,2013-07-12 03:42:00,
2013-07-11 23:44:00,78.4,62.9,29.97,ESE,110,2.7,4.0,59,0.00,,---,0.04,VWS V14.01,2013-07-12 03:44:00,
2013-07-11 23:47:00,78.4,62.9,29.97,SW,227,2.7,2.7,59,0.00,,---,0.04,VWS V14.01,2013-07-12 03:47:00,
2013-07-11 23:48:00,78.4,62.9,29.97,SSW,192,3.6,3.6,59,0.00,,---,0.04,VWS V14.01,2013-07-12 03:48:00,
2013-07-11 23:49:00,78.4,62.9,29.97,SSW,192,3.6,3.6,59,0.00,,---,0.04,VWS V14.01,2013-07-12 03:49:00,
2013-07-11 23:52:00,78.4,62.9,29.97,SSW,192,3.6,3.6,59,0.00,,---,0.04,VWS V14.01,2013-07-12 03:52:00,
2013-07-11 23:53:00,78.4,62.9,29.97,SSW,192,3.6,3.6,59,0.00,,---,0.04,VWS V14.01,2013-07-12 03:53:00,
2013-07-11 23:54:00,78.3,62.8,29.97,SSW,192,3.6,3.6,59,0.00,,---,0.04,VWS V14.01,2013-07-12 03:54:00,
2013-07-11 23:57:00,78.3,62.8,29.97,South,183,4.9,7.6,59,0.00,,---,0.04,VWS V14.01,2013-07-12 03:57:00,
2013-07-11 23:58:00,78.3,62.8,29.97,SW,223,2.2,3.6,59,0.00,,---,0.04,VWS V14.01,2013-07-12 03:58:00,
2013-07-11 23:59:00,78.3,62.3,29.97,SW,223,2.2,2.2,58,0.00,,---,0.04,VWS V14.01,2013-07-12 03:59:00,